<?xml version="1.0" encoding="utf-8"?>
<gpx xmlns:xsi="http://www.w3.org/2001/XMLSchema-instance" xmlns:xsd="http://www.w3.org/2001/XMLSchema" version="1.1" creator="Shapelink.com" xmlns="http://www.topografix.com/GPX/1/1" xmlns:gpxtpx="http://www.garmin.com/xmlschemas/TrackPointExtension/v1">
  <metadata>
    <name>Cykling - Mtb 10.06 km, 2017-07-08</name>
    <desc></desc>
    <author><name>Alexander Engvall</name></author> 
    <time>2017-07-08T08:11:13Z</time>
  </metadata>
  <trk>
    <name>Cykling - Mtb 10.06 km, 2017-07-08</name>
    <trkseg>
      <trkpt lat="59.219791665738" lon="17.907185540194">
        <ele>42.6</ele>
        <time>2017-07-08T08:11:13Z</time>
      </trkpt>
      <trkpt lat="59.219836173627" lon="17.907260977294">
        <ele>42.8</ele>
        <time>2017-07-08T08:11:14Z</time>
      </trkpt>
      <trkpt lat="59.219880932973" lon="17.907387711622">
        <ele>42.8</ele>
        <time>2017-07-08T08:11:17Z</time>
      </trkpt>
      <trkpt lat="59.21997757628" lon="17.907663476132">
        <ele>42.8</ele>
        <time>2017-07-08T08:11:25Z</time>
      </trkpt>
      <trkpt lat="59.220084110229" lon="17.907936223158">
        <ele>42.8</ele>
        <time>2017-07-08T08:11:31Z</time>
      </trkpt>
      <trkpt lat="59.220201456829" lon="17.908194134221">
        <ele>42.8</ele>
        <time>2017-07-08T08:11:37Z</time>
      </trkpt>
      <trkpt lat="59.220344787319" lon="17.908446932325">
        <ele>42.8</ele>
        <time>2017-07-08T08:11:43Z</time>
      </trkpt>
      <trkpt lat="59.220435311839" lon="17.908608367719">
        <ele>42.8</ele>
        <time>2017-07-08T08:11:48Z</time>
      </trkpt>
      <trkpt lat="59.220562046167" lon="17.908668549761">
        <ele>42.8</ele>
        <time>2017-07-08T08:11:53Z</time>
      </trkpt>
      <trkpt lat="59.220640668389" lon="17.908654551988">
        <ele>42.8</ele>
        <time>2017-07-08T08:11:56Z</time>
      </trkpt>
      <trkpt lat="59.220659360026" lon="17.908685565018">
        <ele>42.8</ele>
        <time>2017-07-08T08:11:57Z</time>
      </trkpt>
      <trkpt lat="59.220743598121" lon="17.908899219649">
        <ele>42.8</ele>
        <time>2017-07-08T08:12:02Z</time>
      </trkpt>
      <trkpt lat="59.22075290203" lon="17.908943056986">
        <ele>42.8</ele>
        <time>2017-07-08T08:12:03Z</time>
      </trkpt>
      <trkpt lat="59.220819286678" lon="17.909291157293">
        <ele>42.8</ele>
        <time>2017-07-08T08:12:10Z</time>
      </trkpt>
      <trkpt lat="59.220881731833" lon="17.909645544025">
        <ele>42.8</ele>
        <time>2017-07-08T08:12:17Z</time>
      </trkpt>
      <trkpt lat="59.220912493406" lon="17.909858276647">
        <ele>43.2</ele>
        <time>2017-07-08T08:12:22Z</time>
      </trkpt>
      <trkpt lat="59.220928502835" lon="17.909897252482">
        <ele>43.6</ele>
        <time>2017-07-08T08:12:23Z</time>
      </trkpt>
      <trkpt lat="59.220939986038" lon="17.909940251629">
        <ele>44</ele>
        <time>2017-07-08T08:12:24Z</time>
      </trkpt>
      <trkpt lat="59.220950882508" lon="17.90998878283">
        <ele>44.4</ele>
        <time>2017-07-08T08:12:25Z</time>
      </trkpt>
      <trkpt lat="59.220964628824" lon="17.910034967099">
        <ele>44.8</ele>
        <time>2017-07-08T08:12:26Z</time>
      </trkpt>
      <trkpt lat="59.221052303498" lon="17.910291956153">
        <ele>44.8</ele>
        <time>2017-07-08T08:12:31Z</time>
      </trkpt>
      <trkpt lat="59.221060936855" lon="17.910672410594">
        <ele>44.8</ele>
        <time>2017-07-08T08:12:37Z</time>
      </trkpt>
      <trkpt lat="59.220978710416" lon="17.910822865699">
        <ele>44.8</ele>
        <time>2017-07-08T08:12:41Z</time>
      </trkpt>
      <trkpt lat="59.220819202859" lon="17.911061749849">
        <ele>44.8</ele>
        <time>2017-07-08T08:12:48Z</time>
      </trkpt>
      <trkpt lat="59.220703616458" lon="17.91120332014">
        <ele>44.8</ele>
        <time>2017-07-08T08:12:53Z</time>
      </trkpt>
      <trkpt lat="59.220618540173" lon="17.91139275108">
        <ele>44.8</ele>
        <time>2017-07-08T08:12:58Z</time>
      </trkpt>
      <trkpt lat="59.220661958415" lon="17.911537590312">
        <ele>44.8</ele>
        <time>2017-07-08T08:13:02Z</time>
      </trkpt>
      <trkpt lat="59.220712752729" lon="17.911682932458">
        <ele>44.8</ele>
        <time>2017-07-08T08:13:07Z</time>
      </trkpt>
      <trkpt lat="59.220723481561" lon="17.911723752311">
        <ele>44.8</ele>
        <time>2017-07-08T08:13:08Z</time>
      </trkpt>
      <trkpt lat="59.220764469052" lon="17.911855180503">
        <ele>44.8</ele>
        <time>2017-07-08T08:13:12Z</time>
      </trkpt>
      <trkpt lat="59.220831608071" lon="17.91203312824">
        <ele>44.8</ele>
        <time>2017-07-08T08:13:18Z</time>
      </trkpt>
      <trkpt lat="59.220917354908" lon="17.912252901658">
        <ele>44.8</ele>
        <time>2017-07-08T08:13:24Z</time>
      </trkpt>
      <trkpt lat="59.221033276585" lon="17.912519613716">
        <ele>44.8</ele>
        <time>2017-07-08T08:13:31Z</time>
      </trkpt>
      <trkpt lat="59.221105360925" lon="17.91271792947">
        <ele>44.8</ele>
        <time>2017-07-08T08:13:36Z</time>
      </trkpt>
      <trkpt lat="59.221195382531" lon="17.912934350128">
        <ele>44.8</ele>
        <time>2017-07-08T08:13:41Z</time>
      </trkpt>
      <trkpt lat="59.221299988643" lon="17.913204582584">
        <ele>44.8</ele>
        <time>2017-07-08T08:13:46Z</time>
      </trkpt>
      <trkpt lat="59.221435356328" lon="17.913431061522">
        <ele>44.8</ele>
        <time>2017-07-08T08:13:51Z</time>
      </trkpt>
      <trkpt lat="59.221600060663" lon="17.913528626838">
        <ele>44.8</ele>
        <time>2017-07-08T08:13:57Z</time>
      </trkpt>
      <trkpt lat="59.221614058436" lon="17.913552012339">
        <ele>44.8</ele>
        <time>2017-07-08T08:13:58Z</time>
      </trkpt>
      <trkpt lat="59.221619925766" lon="17.91356450137">
        <ele>44.8</ele>
        <time>2017-07-08T08:14:00Z</time>
      </trkpt>
      <trkpt lat="59.221619925766" lon="17.91356450137">
        <ele>44.8</ele>
        <time>2017-07-08T08:14:01Z</time>
      </trkpt>
      <trkpt lat="59.221622607974" lon="17.913579085876">
        <ele>44.8</ele>
        <time>2017-07-08T08:14:19Z</time>
      </trkpt>
      <trkpt lat="59.221652615176" lon="17.913666509093">
        <ele>44.8</ele>
        <time>2017-07-08T08:14:21Z</time>
      </trkpt>
      <trkpt lat="59.221699805273" lon="17.913909416555">
        <ele>44.8</ele>
        <time>2017-07-08T08:14:25Z</time>
      </trkpt>
      <trkpt lat="59.221667534958" lon="17.914036150883">
        <ele>44.8</ele>
        <time>2017-07-08T08:14:29Z</time>
      </trkpt>
      <trkpt lat="59.221653621004" lon="17.914070265216">
        <ele>44.8</ele>
        <time>2017-07-08T08:14:30Z</time>
      </trkpt>
      <trkpt lat="59.221602323776" lon="17.914149641809">
        <ele>44.8</ele>
        <time>2017-07-08T08:14:33Z</time>
      </trkpt>
      <trkpt lat="59.221590337659" lon="17.914235807741">
        <ele>44.8</ele>
        <time>2017-07-08T08:14:35Z</time>
      </trkpt>
      <trkpt lat="59.221607520554" lon="17.914284758037">
        <ele>44.8</ele>
        <time>2017-07-08T08:14:36Z</time>
      </trkpt>
      <trkpt lat="59.221746492456" lon="17.914652639628">
        <ele>44.8</ele>
        <time>2017-07-08T08:14:44Z</time>
      </trkpt>
      <trkpt lat="59.221859815744" lon="17.914865623707">
        <ele>45.2</ele>
        <time>2017-07-08T08:14:50Z</time>
      </trkpt>
      <trkpt lat="59.22188026758" lon="17.914900743868">
        <ele>45.8</ele>
        <time>2017-07-08T08:14:51Z</time>
      </trkpt>
      <trkpt lat="59.221899797407" lon="17.914940138798">
        <ele>46.2</ele>
        <time>2017-07-08T08:14:52Z</time>
      </trkpt>
      <trkpt lat="59.221922260899" lon="17.914981545384">
        <ele>46.6</ele>
        <time>2017-07-08T08:14:53Z</time>
      </trkpt>
      <trkpt lat="59.221941203993" lon="17.915021694685">
        <ele>47</ele>
        <time>2017-07-08T08:14:54Z</time>
      </trkpt>
      <trkpt lat="59.222072883642" lon="17.915246832519">
        <ele>47</ele>
        <time>2017-07-08T08:15:00Z</time>
      </trkpt>
      <trkpt lat="59.222273881604" lon="17.915622090182">
        <ele>47</ele>
        <time>2017-07-08T08:15:09Z</time>
      </trkpt>
      <trkpt lat="59.222410590393" lon="17.915875307381">
        <ele>47</ele>
        <time>2017-07-08T08:15:16Z</time>
      </trkpt>
      <trkpt lat="59.222501701646" lon="17.916009417781">
        <ele>47.4</ele>
        <time>2017-07-08T08:15:21Z</time>
      </trkpt>
      <trkpt lat="59.222519135998" lon="17.916043532114">
        <ele>47.8</ele>
        <time>2017-07-08T08:15:22Z</time>
      </trkpt>
      <trkpt lat="59.222537911454" lon="17.916083765234">
        <ele>48.2</ele>
        <time>2017-07-08T08:15:23Z</time>
      </trkpt>
      <trkpt lat="59.222556183996" lon="17.916119807404">
        <ele>48.6</ele>
        <time>2017-07-08T08:15:24Z</time>
      </trkpt>
      <trkpt lat="59.222578060755" lon="17.916151071891">
        <ele>49</ele>
        <time>2017-07-08T08:15:25Z</time>
      </trkpt>
      <trkpt lat="59.222632543105" lon="17.916245284447">
        <ele>49</ele>
        <time>2017-07-08T08:15:28Z</time>
      </trkpt>
      <trkpt lat="59.222747123678" lon="17.916490455022">
        <ele>49</ele>
        <time>2017-07-08T08:15:34Z</time>
      </trkpt>
      <trkpt lat="59.222857848577" lon="17.916866802332">
        <ele>49</ele>
        <time>2017-07-08T08:15:42Z</time>
      </trkpt>
      <trkpt lat="59.222928088899" lon="17.917161426117">
        <ele>49</ele>
        <time>2017-07-08T08:15:47Z</time>
      </trkpt>
      <trkpt lat="59.222943427776" lon="17.917222194892">
        <ele>49</ele>
        <time>2017-07-08T08:15:48Z</time>
      </trkpt>
      <trkpt lat="59.223039651988" lon="17.91766995599">
        <ele>49</ele>
        <time>2017-07-08T08:15:55Z</time>
      </trkpt>
      <trkpt lat="59.223113999441" lon="17.91801696665">
        <ele>49</ele>
        <time>2017-07-08T08:16:01Z</time>
      </trkpt>
      <trkpt lat="59.223123890083" lon="17.918070359353">
        <ele>49.4</ele>
        <time>2017-07-08T08:16:02Z</time>
      </trkpt>
      <trkpt lat="59.223131266155" lon="17.918123919694">
        <ele>49.8</ele>
        <time>2017-07-08T08:16:03Z</time>
      </trkpt>
      <trkpt lat="59.22313755258" lon="17.918177731492">
        <ele>50.2</ele>
        <time>2017-07-08T08:16:04Z</time>
      </trkpt>
      <trkpt lat="59.223145766842" lon="17.918237159163">
        <ele>50.6</ele>
        <time>2017-07-08T08:16:05Z</time>
      </trkpt>
      <trkpt lat="59.223156998588" lon="17.918295161911">
        <ele>51</ele>
        <time>2017-07-08T08:16:06Z</time>
      </trkpt>
      <trkpt lat="59.223165631945" lon="17.9183564336">
        <ele>51</ele>
        <time>2017-07-08T08:16:07Z</time>
      </trkpt>
      <trkpt lat="59.223244505624" lon="17.91885850941">
        <ele>51</ele>
        <time>2017-07-08T08:16:15Z</time>
      </trkpt>
      <trkpt lat="59.223362690414" lon="17.919336445348">
        <ele>51</ele>
        <time>2017-07-08T08:16:23Z</time>
      </trkpt>
      <trkpt lat="59.223440558265" lon="17.919770041035">
        <ele>51</ele>
        <time>2017-07-08T08:16:30Z</time>
      </trkpt>
      <trkpt lat="59.223461513015" lon="17.919888393463">
        <ele>51.4</ele>
        <time>2017-07-08T08:16:32Z</time>
      </trkpt>
      <trkpt lat="59.223468386173" lon="17.91994396546">
        <ele>51.8</ele>
        <time>2017-07-08T08:16:33Z</time>
      </trkpt>
      <trkpt lat="59.223475091693" lon="17.919989730634">
        <ele>52.2</ele>
        <time>2017-07-08T08:16:34Z</time>
      </trkpt>
      <trkpt lat="59.223483557412" lon="17.920031304858">
        <ele>52.6</ele>
        <time>2017-07-08T08:16:35Z</time>
      </trkpt>
      <trkpt lat="59.223493280416" lon="17.920074806919">
        <ele>53</ele>
        <time>2017-07-08T08:16:36Z</time>
      </trkpt>
      <trkpt lat="59.223500572669" lon="17.920110597632">
        <ele>53</ele>
        <time>2017-07-08T08:16:37Z</time>
      </trkpt>
      <trkpt lat="59.223557569589" lon="17.920374962758">
        <ele>53</ele>
        <time>2017-07-08T08:16:45Z</time>
      </trkpt>
      <trkpt lat="59.223599814365" lon="17.920576379815">
        <ele>53</ele>
        <time>2017-07-08T08:16:50Z</time>
      </trkpt>
      <trkpt lat="59.223668797402" lon="17.920809983368">
        <ele>53</ele>
        <time>2017-07-08T08:16:56Z</time>
      </trkpt>
      <trkpt lat="59.223739037724" lon="17.921121873867">
        <ele>53</ele>
        <time>2017-07-08T08:17:03Z</time>
      </trkpt>
      <trkpt lat="59.223825455113" lon="17.921459077704">
        <ele>53</ele>
        <time>2017-07-08T08:17:10Z</time>
      </trkpt>
      <trkpt lat="59.223893180865" lon="17.921721179717">
        <ele>53</ele>
        <time>2017-07-08T08:17:15Z</time>
      </trkpt>
      <trkpt lat="59.223972976553" lon="17.922071543137">
        <ele>53</ele>
        <time>2017-07-08T08:17:22Z</time>
      </trkpt>
      <trkpt lat="59.224073056439" lon="17.922459708926">
        <ele>53</ele>
        <time>2017-07-08T08:17:28Z</time>
      </trkpt>
      <trkpt lat="59.224097866863" lon="17.922541432451">
        <ele>53</ele>
        <time>2017-07-08T08:17:29Z</time>
      </trkpt>
      <trkpt lat="59.224167771909" lon="17.922796828944">
        <ele>53</ele>
        <time>2017-07-08T08:17:32Z</time>
      </trkpt>
      <trkpt lat="59.224254440755" lon="17.923133613686">
        <ele>53</ele>
        <time>2017-07-08T08:17:36Z</time>
      </trkpt>
      <trkpt lat="59.224417971624" lon="17.923748928965">
        <ele>53</ele>
        <time>2017-07-08T08:17:44Z</time>
      </trkpt>
      <trkpt lat="59.224479327132" lon="17.92396057194">
        <ele>53</ele>
        <time>2017-07-08T08:17:47Z</time>
      </trkpt>
      <trkpt lat="59.22454152083" lon="17.92420951437">
        <ele>53</ele>
        <time>2017-07-08T08:17:51Z</time>
      </trkpt>
      <trkpt lat="59.224606396736" lon="17.924605642964">
        <ele>53</ele>
        <time>2017-07-08T08:17:57Z</time>
      </trkpt>
      <trkpt lat="59.224667416968" lon="17.924894483238">
        <ele>53</ele>
        <time>2017-07-08T08:18:02Z</time>
      </trkpt>
      <trkpt lat="59.224749140493" lon="17.925216599655">
        <ele>53</ele>
        <time>2017-07-08T08:18:07Z</time>
      </trkpt>
      <trkpt lat="59.224778058048" lon="17.925300921569">
        <ele>53</ele>
        <time>2017-07-08T08:18:08Z</time>
      </trkpt>
      <trkpt lat="59.224801527368" lon="17.92538717132">
        <ele>53</ele>
        <time>2017-07-08T08:18:09Z</time>
      </trkpt>
      <trkpt lat="59.224876964468" lon="17.925620439597">
        <ele>53</ele>
        <time>2017-07-08T08:18:12Z</time>
      </trkpt>
      <trkpt lat="59.224903032177" lon="17.925684477313">
        <ele>53</ele>
        <time>2017-07-08T08:18:13Z</time>
      </trkpt>
      <trkpt lat="59.224910492068" lon="17.925750275228">
        <ele>53</ele>
        <time>2017-07-08T08:18:14Z</time>
      </trkpt>
      <trkpt lat="59.22495642488" lon="17.925872567149">
        <ele>53</ele>
        <time>2017-07-08T08:18:16Z</time>
      </trkpt>
      <trkpt lat="59.225022222795" lon="17.926034505457">
        <ele>53</ele>
        <time>2017-07-08T08:18:19Z</time>
      </trkpt>
      <trkpt lat="59.225046278848" lon="17.926080186812">
        <ele>53</ele>
        <time>2017-07-08T08:18:20Z</time>
      </trkpt>
      <trkpt lat="59.225122554138" lon="17.926275233625">
        <ele>53</ele>
        <time>2017-07-08T08:18:25Z</time>
      </trkpt>
      <trkpt lat="59.2251810598" lon="17.92637623552">
        <ele>53.4</ele>
        <time>2017-07-08T08:18:29Z</time>
      </trkpt>
      <trkpt lat="59.225196231039" lon="17.926411355681">
        <ele>54</ele>
        <time>2017-07-08T08:18:30Z</time>
      </trkpt>
      <trkpt lat="59.225208133337" lon="17.92643239425">
        <ele>54.4</ele>
        <time>2017-07-08T08:18:31Z</time>
      </trkpt>
      <trkpt lat="59.225221041463" lon="17.92645251081">
        <ele>54.8</ele>
        <time>2017-07-08T08:18:32Z</time>
      </trkpt>
      <trkpt lat="59.22523805672" lon="17.926493498301">
        <ele>55.2</ele>
        <time>2017-07-08T08:18:33Z</time>
      </trkpt>
      <trkpt lat="59.225258760013" lon="17.926560385863">
        <ele>55.2</ele>
        <time>2017-07-08T08:18:35Z</time>
      </trkpt>
      <trkpt lat="59.225331431086" lon="17.926724252008">
        <ele>55.2</ele>
        <time>2017-07-08T08:18:41Z</time>
      </trkpt>
      <trkpt lat="59.225354648949" lon="17.926788289724">
        <ele>55.2</ele>
        <time>2017-07-08T08:18:43Z</time>
      </trkpt>
      <trkpt lat="59.225369317274" lon="17.92681879984">
        <ele>55.6</ele>
        <time>2017-07-08T08:18:44Z</time>
      </trkpt>
      <trkpt lat="59.225384656151" lon="17.926856183114">
        <ele>56</ele>
        <time>2017-07-08T08:18:45Z</time>
      </trkpt>
      <trkpt lat="59.225392116042" lon="17.926893650207">
        <ele>56.4</ele>
        <time>2017-07-08T08:18:46Z</time>
      </trkpt>
      <trkpt lat="59.225402844874" lon="17.926930614386">
        <ele>56.8</ele>
        <time>2017-07-08T08:18:47Z</time>
      </trkpt>
      <trkpt lat="59.225414747172" lon="17.926958693751">
        <ele>57.2</ele>
        <time>2017-07-08T08:18:48Z</time>
      </trkpt>
      <trkpt lat="59.225481718553" lon="17.927116524928">
        <ele>57.2</ele>
        <time>2017-07-08T08:18:53Z</time>
      </trkpt>
      <trkpt lat="59.225534440704" lon="17.92723873303">
        <ele>57.2</ele>
        <time>2017-07-08T08:18:57Z</time>
      </trkpt>
      <trkpt lat="59.225538044921" lon="17.927281061625">
        <ele>57.2</ele>
        <time>2017-07-08T08:18:58Z</time>
      </trkpt>
      <trkpt lat="59.225555143997" lon="17.927314756863">
        <ele>57.6</ele>
        <time>2017-07-08T08:18:59Z</time>
      </trkpt>
      <trkpt lat="59.225568638856" lon="17.927352475413">
        <ele>58</ele>
        <time>2017-07-08T08:19:00Z</time>
      </trkpt>
      <trkpt lat="59.225579619145" lon="17.927396648026">
        <ele>58.4</ele>
        <time>2017-07-08T08:19:01Z</time>
      </trkpt>
      <trkpt lat="59.225592443452" lon="17.927438306069">
        <ele>58.8</ele>
        <time>2017-07-08T08:19:02Z</time>
      </trkpt>
      <trkpt lat="59.225603759017" lon="17.927472001307">
        <ele>59.2</ele>
        <time>2017-07-08T08:19:03Z</time>
      </trkpt>
      <trkpt lat="59.225655894435" lon="17.927710382543">
        <ele>59.2</ele>
        <time>2017-07-08T08:19:07Z</time>
      </trkpt>
      <trkpt lat="59.225687745655" lon="17.9278698901">
        <ele>59.2</ele>
        <time>2017-07-08T08:19:09Z</time>
      </trkpt>
      <trkpt lat="59.225718423409" lon="17.928041299955">
        <ele>59.2</ele>
        <time>2017-07-08T08:19:11Z</time>
      </trkpt>
      <trkpt lat="59.225728900784" lon="17.928134339045">
        <ele>59.2</ele>
        <time>2017-07-08T08:19:12Z</time>
      </trkpt>
      <trkpt lat="59.225740719263" lon="17.928228970696">
        <ele>58.8</ele>
        <time>2017-07-08T08:19:13Z</time>
      </trkpt>
      <trkpt lat="59.225748262973" lon="17.928320920139">
        <ele>58.4</ele>
        <time>2017-07-08T08:19:14Z</time>
      </trkpt>
      <trkpt lat="59.22575270538" lon="17.928410103555">
        <ele>57.8</ele>
        <time>2017-07-08T08:19:15Z</time>
      </trkpt>
      <trkpt lat="59.225758991805" lon="17.928494257831">
        <ele>57.4</ele>
        <time>2017-07-08T08:19:16Z</time>
      </trkpt>
      <trkpt lat="59.22576360185" lon="17.928577993012">
        <ele>57</ele>
        <time>2017-07-08T08:19:17Z</time>
      </trkpt>
      <trkpt lat="59.225766284058" lon="17.92874663684">
        <ele>57</ele>
        <time>2017-07-08T08:19:19Z</time>
      </trkpt>
      <trkpt lat="59.225767708981" lon="17.929245611347">
        <ele>57</ele>
        <time>2017-07-08T08:19:25Z</time>
      </trkpt>
      <trkpt lat="59.225767457524" lon="17.929324401207">
        <ele>57</ele>
        <time>2017-07-08T08:19:26Z</time>
      </trkpt>
      <trkpt lat="59.225753711208" lon="17.929864949938">
        <ele>57</ele>
        <time>2017-07-08T08:19:33Z</time>
      </trkpt>
      <trkpt lat="59.225730660983" lon="17.930359817314">
        <ele>57</ele>
        <time>2017-07-08T08:19:40Z</time>
      </trkpt>
      <trkpt lat="59.225737869417" lon="17.930784695825">
        <ele>57</ele>
        <time>2017-07-08T08:19:47Z</time>
      </trkpt>
      <trkpt lat="59.225737282684" lon="17.93084378822">
        <ele>57</ele>
        <time>2017-07-08T08:19:49Z</time>
      </trkpt>
      <trkpt lat="59.225736444494" lon="17.930842028021">
        <ele>57</ele>
        <time>2017-07-08T08:19:50Z</time>
      </trkpt>
      <trkpt lat="59.225732253544" lon="17.930866251712">
        <ele>57</ele>
        <time>2017-07-08T08:20:11Z</time>
      </trkpt>
      <trkpt lat="59.225740719263" lon="17.931108823898">
        <ele>57</ele>
        <time>2017-07-08T08:20:17Z</time>
      </trkpt>
      <trkpt lat="59.225747592421" lon="17.931154672891">
        <ele>56.6</ele>
        <time>2017-07-08T08:20:18Z</time>
      </trkpt>
      <trkpt lat="59.225761757832" lon="17.93118325517">
        <ele>56.2</ele>
        <time>2017-07-08T08:20:19Z</time>
      </trkpt>
      <trkpt lat="59.2257761747" lon="17.931208149413">
        <ele>55.8</ele>
        <time>2017-07-08T08:20:20Z</time>
      </trkpt>
      <trkpt lat="59.225791178301" lon="17.931228852706">
        <ele>55.4</ele>
        <time>2017-07-08T08:20:21Z</time>
      </trkpt>
      <trkpt lat="59.225803164418" lon="17.931259781917">
        <ele>55</ele>
        <time>2017-07-08T08:20:22Z</time>
      </trkpt>
      <trkpt lat="59.225818335657" lon="17.931287609825">
        <ele>55</ele>
        <time>2017-07-08T08:20:23Z</time>
      </trkpt>
      <trkpt lat="59.225876673681" lon="17.931520878102">
        <ele>55</ele>
        <time>2017-07-08T08:20:28Z</time>
      </trkpt>
      <trkpt lat="59.225903495761" lon="17.931908457158">
        <ele>55</ele>
        <time>2017-07-08T08:20:34Z</time>
      </trkpt>
      <trkpt lat="59.225914056955" lon="17.932264017356">
        <ele>54.6</ele>
        <time>2017-07-08T08:20:39Z</time>
      </trkpt>
      <trkpt lat="59.225927384176" lon="17.932332748936">
        <ele>54.2</ele>
        <time>2017-07-08T08:20:40Z</time>
      </trkpt>
      <trkpt lat="59.225933000049" lon="17.932408605131">
        <ele>53.8</ele>
        <time>2017-07-08T08:20:41Z</time>
      </trkpt>
      <trkpt lat="59.225941884863" lon="17.932476498521">
        <ele>53.4</ele>
        <time>2017-07-08T08:20:42Z</time>
      </trkpt>
      <trkpt lat="59.225970886237" lon="17.932533914536">
        <ele>53</ele>
        <time>2017-07-08T08:20:43Z</time>
      </trkpt>
      <trkpt lat="59.226017154325" lon="17.93266936604">
        <ele>53</ele>
        <time>2017-07-08T08:20:45Z</time>
      </trkpt>
      <trkpt lat="59.226053280314" lon="17.932901628489">
        <ele>53</ele>
        <time>2017-07-08T08:20:48Z</time>
      </trkpt>
      <trkpt lat="59.226075911444" lon="17.933056442182">
        <ele>52.6</ele>
        <time>2017-07-08T08:20:50Z</time>
      </trkpt>
      <trkpt lat="59.22608462862" lon="17.933129448531">
        <ele>51.6</ele>
        <time>2017-07-08T08:20:51Z</time>
      </trkpt>
      <trkpt lat="59.226099380764" lon="17.933190049668">
        <ele>51.2</ele>
        <time>2017-07-08T08:20:52Z</time>
      </trkpt>
      <trkpt lat="59.22610223061" lon="17.933263056017">
        <ele>50.8</ele>
        <time>2017-07-08T08:20:53Z</time>
      </trkpt>
      <trkpt lat="59.226111702157" lon="17.933332458149">
        <ele>50.8</ele>
        <time>2017-07-08T08:20:54Z</time>
      </trkpt>
      <trkpt lat="59.226162412652" lon="17.933627501029">
        <ele>50.8</ele>
        <time>2017-07-08T08:20:58Z</time>
      </trkpt>
      <trkpt lat="59.22618604961" lon="17.933781141256">
        <ele>50.8</ele>
        <time>2017-07-08T08:21:00Z</time>
      </trkpt>
      <trkpt lat="59.22620448979" lon="17.934025138365">
        <ele>50.8</ele>
        <time>2017-07-08T08:21:03Z</time>
      </trkpt>
      <trkpt lat="59.226193928596" lon="17.934110633745">
        <ele>50.4</ele>
        <time>2017-07-08T08:21:04Z</time>
      </trkpt>
      <trkpt lat="59.22618353504" lon="17.934187831044">
        <ele>50</ele>
        <time>2017-07-08T08:21:05Z</time>
      </trkpt>
      <trkpt lat="59.226183283583" lon="17.934264525429">
        <ele>49.6</ele>
        <time>2017-07-08T08:21:06Z</time>
      </trkpt>
      <trkpt lat="59.226181607203" lon="17.934336023036">
        <ele>49.2</ele>
        <time>2017-07-08T08:21:07Z</time>
      </trkpt>
      <trkpt lat="59.226183367402" lon="17.934405173711">
        <ele>48.6</ele>
        <time>2017-07-08T08:21:08Z</time>
      </trkpt>
      <trkpt lat="59.226209183654" lon="17.934497709887">
        <ele>48.6</ele>
        <time>2017-07-08T08:21:10Z</time>
      </trkpt>
      <trkpt lat="59.226223181427" lon="17.93454439707">
        <ele>48.6</ele>
        <time>2017-07-08T08:21:13Z</time>
      </trkpt>
      <trkpt lat="59.226229467852" lon="17.934559568309">
        <ele>48.6</ele>
        <time>2017-07-08T08:21:29Z</time>
      </trkpt>
      <trkpt lat="59.226283028193" lon="17.934751094724">
        <ele>48.6</ele>
        <time>2017-07-08T08:21:33Z</time>
      </trkpt>
      <trkpt lat="59.226387634305" lon="17.93508000048">
        <ele>48.2</ele>
        <time>2017-07-08T08:21:38Z</time>
      </trkpt>
      <trkpt lat="59.226413702014" lon="17.935146971861">
        <ele>47.8</ele>
        <time>2017-07-08T08:21:39Z</time>
      </trkpt>
      <trkpt lat="59.22643918299" lon="17.935221906047">
        <ele>47</ele>
        <time>2017-07-08T08:21:40Z</time>
      </trkpt>
      <trkpt lat="59.226468938735" lon="17.935288625971">
        <ele>46.6</ele>
        <time>2017-07-08T08:21:41Z</time>
      </trkpt>
      <trkpt lat="59.226573544847" lon="17.935538658048">
        <ele>46.6</ele>
        <time>2017-07-08T08:21:45Z</time>
      </trkpt>
      <trkpt lat="59.226633475432" lon="17.935660530874">
        <ele>46.2</ele>
        <time>2017-07-08T08:21:47Z</time>
      </trkpt>
      <trkpt lat="59.226663314996" lon="17.935723311305">
        <ele>45.8</ele>
        <time>2017-07-08T08:21:48Z</time>
      </trkpt>
      <trkpt lat="59.226692148732" lon="17.935777039284">
        <ele>45.4</ele>
        <time>2017-07-08T08:21:49Z</time>
      </trkpt>
      <trkpt lat="59.226720647192" lon="17.93583101872">
        <ele>45</ele>
        <time>2017-07-08T08:21:50Z</time>
      </trkpt>
      <trkpt lat="59.226752163136" lon="17.93589220659">
        <ele>44.6</ele>
        <time>2017-07-08T08:21:51Z</time>
      </trkpt>
      <trkpt lat="59.226786780383" lon="17.935947359492">
        <ele>44.6</ele>
        <time>2017-07-08T08:21:52Z</time>
      </trkpt>
      <trkpt lat="59.226922986258" lon="17.936164366883">
        <ele>44.2</ele>
        <time>2017-07-08T08:21:56Z</time>
      </trkpt>
      <trkpt lat="59.22696305174" lon="17.936226895857">
        <ele>43.8</ele>
        <time>2017-07-08T08:21:57Z</time>
      </trkpt>
      <trkpt lat="59.227007727267" lon="17.936285066243">
        <ele>43.4</ele>
        <time>2017-07-08T08:21:58Z</time>
      </trkpt>
      <trkpt lat="59.227055085002" lon="17.936347176122">
        <ele>42.8</ele>
        <time>2017-07-08T08:21:59Z</time>
      </trkpt>
      <trkpt lat="59.227102861832" lon="17.936404843594">
        <ele>42.4</ele>
        <time>2017-07-08T08:22:00Z</time>
      </trkpt>
      <trkpt lat="59.227197912578" lon="17.936518502158">
        <ele>42</ele>
        <time>2017-07-08T08:22:02Z</time>
      </trkpt>
      <trkpt lat="59.227250802367" lon="17.936566446626">
        <ele>41.6</ele>
        <time>2017-07-08T08:22:03Z</time>
      </trkpt>
      <trkpt lat="59.227305536174" lon="17.936615229284">
        <ele>41.2</ele>
        <time>2017-07-08T08:22:04Z</time>
      </trkpt>
      <trkpt lat="59.227354989384" lon="17.936656719689">
        <ele>40.4</ele>
        <time>2017-07-08T08:22:05Z</time>
      </trkpt>
      <trkpt lat="59.227406789526" lon="17.936693935325">
        <ele>40.4</ele>
        <time>2017-07-08T08:22:06Z</time>
      </trkpt>
      <trkpt lat="59.227717171283" lon="17.936903985739">
        <ele>40.4</ele>
        <time>2017-07-08T08:22:13Z</time>
      </trkpt>
      <trkpt lat="59.227808282536" lon="17.93696592798">
        <ele>40</ele>
        <time>2017-07-08T08:22:15Z</time>
      </trkpt>
      <trkpt lat="59.227853880072" lon="17.936997946838">
        <ele>39.4</ele>
        <time>2017-07-08T08:22:16Z</time>
      </trkpt>
      <trkpt lat="59.22789930997" lon="17.937035078655">
        <ele>39</ele>
        <time>2017-07-08T08:22:17Z</time>
      </trkpt>
      <trkpt lat="59.227946416248" lon="17.937073551576">
        <ele>38.6</ele>
        <time>2017-07-08T08:22:18Z</time>
      </trkpt>
      <trkpt lat="59.227996623829" lon="17.937108923194">
        <ele>38.2</ele>
        <time>2017-07-08T08:22:19Z</time>
      </trkpt>
      <trkpt lat="59.228097793362" lon="17.937167847951">
        <ele>38.2</ele>
        <time>2017-07-08T08:22:21Z</time>
      </trkpt>
      <trkpt lat="59.228141295423" lon="17.937203890121">
        <ele>38.2</ele>
        <time>2017-07-08T08:22:22Z</time>
      </trkpt>
      <trkpt lat="59.22818345638" lon="17.937233645866">
        <ele>37.8</ele>
        <time>2017-07-08T08:22:23Z</time>
      </trkpt>
      <trkpt lat="59.228225784975" lon="17.937262144326">
        <ele>37.4</ele>
        <time>2017-07-08T08:22:24Z</time>
      </trkpt>
      <trkpt lat="59.22826392262" lon="17.93729785122">
        <ele>37</ele>
        <time>2017-07-08T08:22:25Z</time>
      </trkpt>
      <trkpt lat="59.228302311722" lon="17.937339257806">
        <ele>36.6</ele>
        <time>2017-07-08T08:22:26Z</time>
      </trkpt>
      <trkpt lat="59.22834438886" lon="17.937354596683">
        <ele>36.2</ele>
        <time>2017-07-08T08:22:27Z</time>
      </trkpt>
      <trkpt lat="59.228464501487" lon="17.937470015446">
        <ele>35.8</ele>
        <time>2017-07-08T08:22:30Z</time>
      </trkpt>
      <trkpt lat="59.228504566969" lon="17.937496166974">
        <ele>35.4</ele>
        <time>2017-07-08T08:22:31Z</time>
      </trkpt>
      <trkpt lat="59.22854806903" lon="17.937524413977">
        <ele>35</ele>
        <time>2017-07-08T08:22:32Z</time>
      </trkpt>
      <trkpt lat="59.22859165491" lon="17.937552158066">
        <ele>34.6</ele>
        <time>2017-07-08T08:22:33Z</time>
      </trkpt>
      <trkpt lat="59.228636498075" lon="17.937585601847">
        <ele>34.2</ele>
        <time>2017-07-08T08:22:34Z</time>
      </trkpt>
      <trkpt lat="59.228682095611" lon="17.937603287656">
        <ele>34.2</ele>
        <time>2017-07-08T08:22:35Z</time>
      </trkpt>
      <trkpt lat="59.2287266035" lon="17.937621560198">
        <ele>34.2</ele>
        <time>2017-07-08T08:22:36Z</time>
      </trkpt>
      <trkpt lat="59.228780331479" lon="17.937660284576">
        <ele>33.8</ele>
        <time>2017-07-08T08:22:37Z</time>
      </trkpt>
      <trkpt lat="59.228830203784" lon="17.937690878511">
        <ele>33.4</ele>
        <time>2017-07-08T08:22:38Z</time>
      </trkpt>
      <trkpt lat="59.228884769953" lon="17.937718790238">
        <ele>32.8</ele>
        <time>2017-07-08T08:22:39Z</time>
      </trkpt>
      <trkpt lat="59.228934726077" lon="17.937755586779">
        <ele>32.4</ele>
        <time>2017-07-08T08:22:40Z</time>
      </trkpt>
      <trkpt lat="59.228989124608" lon="17.937779056099">
        <ele>32</ele>
        <time>2017-07-08T08:22:41Z</time>
      </trkpt>
      <trkpt lat="59.229098089308" lon="17.93782423454">
        <ele>31.6</ele>
        <time>2017-07-08T08:22:43Z</time>
      </trkpt>
      <trkpt lat="59.229145866138" lon="17.937881734374">
        <ele>31</ele>
        <time>2017-07-08T08:22:44Z</time>
      </trkpt>
      <trkpt lat="59.229199426479" lon="17.937930349394">
        <ele>30.6</ele>
        <time>2017-07-08T08:22:45Z</time>
      </trkpt>
      <trkpt lat="59.229253573553" lon="17.937961781519">
        <ele>30.2</ele>
        <time>2017-07-08T08:22:46Z</time>
      </trkpt>
      <trkpt lat="59.229305373695" lon="17.937998745698">
        <ele>29.8</ele>
        <time>2017-07-08T08:22:47Z</time>
      </trkpt>
      <trkpt lat="59.229517687222" lon="17.93813855579">
        <ele>29.8</ele>
        <time>2017-07-08T08:22:51Z</time>
      </trkpt>
      <trkpt lat="59.229723881962" lon="17.938257411132">
        <ele>29.8</ele>
        <time>2017-07-08T08:22:55Z</time>
      </trkpt>
      <trkpt lat="59.229862099493" lon="17.938334273155">
        <ele>29.8</ele>
        <time>2017-07-08T08:22:58Z</time>
      </trkpt>
      <trkpt lat="59.229911049789" lon="17.938572067658">
        <ele>29.8</ele>
        <time>2017-07-08T08:23:01Z</time>
      </trkpt>
      <trkpt lat="59.229896381464" lon="17.938753032879">
        <ele>29.8</ele>
        <time>2017-07-08T08:23:04Z</time>
      </trkpt>
      <trkpt lat="59.22989671674" lon="17.938786057565">
        <ele>29.8</ele>
        <time>2017-07-08T08:23:05Z</time>
      </trkpt>
      <trkpt lat="59.229867715366" lon="17.939069114328">
        <ele>29.8</ele>
        <time>2017-07-08T08:23:11Z</time>
      </trkpt>
      <trkpt lat="59.229859417285" lon="17.939127117076">
        <ele>29.2</ele>
        <time>2017-07-08T08:23:12Z</time>
      </trkpt>
      <trkpt lat="59.229855058697" lon="17.939189897507">
        <ele>28.8</ele>
        <time>2017-07-08T08:23:13Z</time>
      </trkpt>
      <trkpt lat="59.229848185539" lon="17.939251588291">
        <ele>28.4</ele>
        <time>2017-07-08T08:23:14Z</time>
      </trkpt>
      <trkpt lat="59.229838546354" lon="17.939317134749">
        <ele>28</ele>
        <time>2017-07-08T08:23:15Z</time>
      </trkpt>
      <trkpt lat="59.229828404255" lon="17.939380501913">
        <ele>27.6</ele>
        <time>2017-07-08T08:23:16Z</time>
      </trkpt>
      <trkpt lat="59.229807952419" lon="17.93948804169">
        <ele>27.6</ele>
        <time>2017-07-08T08:23:18Z</time>
      </trkpt>
      <trkpt lat="59.229762857797" lon="17.939793729583">
        <ele>27.6</ele>
        <time>2017-07-08T08:23:23Z</time>
      </trkpt>
      <trkpt lat="59.229696640787" lon="17.940249034391">
        <ele>27.6</ele>
        <time>2017-07-08T08:23:30Z</time>
      </trkpt>
      <trkpt lat="59.229628244483" lon="17.94065731674">
        <ele>27.6</ele>
        <time>2017-07-08T08:23:36Z</time>
      </trkpt>
      <trkpt lat="59.229581976395" lon="17.940907600274">
        <ele>27.6</ele>
        <time>2017-07-08T08:23:39Z</time>
      </trkpt>
      <trkpt lat="59.229555741048" lon="17.941140700913">
        <ele>27.6</ele>
        <time>2017-07-08T08:23:42Z</time>
      </trkpt>
      <trkpt lat="59.229488015296" lon="17.941557868076">
        <ele>27.6</ele>
        <time>2017-07-08T08:23:48Z</time>
      </trkpt>
      <trkpt lat="59.229401094993" lon="17.942114426236">
        <ele>27.6</ele>
        <time>2017-07-08T08:23:55Z</time>
      </trkpt>
      <trkpt lat="59.229313085043" lon="17.942657992451">
        <ele>27.6</ele>
        <time>2017-07-08T08:24:02Z</time>
      </trkpt>
      <trkpt lat="59.229238402314" lon="17.943097455468">
        <ele>27.6</ele>
        <time>2017-07-08T08:24:08Z</time>
      </trkpt>
      <trkpt lat="59.229158858083" lon="17.943558459968">
        <ele>27.6</ele>
        <time>2017-07-08T08:24:15Z</time>
      </trkpt>
      <trkpt lat="59.229108231407" lon="17.943823663284">
        <ele>27.6</ele>
        <time>2017-07-08T08:24:21Z</time>
      </trkpt>
      <trkpt lat="59.229075793454" lon="17.943912176148">
        <ele>27.6</ele>
        <time>2017-07-08T08:24:26Z</time>
      </trkpt>
      <trkpt lat="59.229067160097" lon="17.944021979038">
        <ele>27.6</ele>
        <time>2017-07-08T08:26:10Z</time>
      </trkpt>
      <trkpt lat="59.229062969147" lon="17.944119711992">
        <ele>27.6</ele>
        <time>2017-07-08T08:26:12Z</time>
      </trkpt>
      <trkpt lat="59.22902667552" lon="17.944428082093">
        <ele>27.6</ele>
        <time>2017-07-08T08:26:17Z</time>
      </trkpt>
      <trkpt lat="59.228937575923" lon="17.944873663897">
        <ele>27.6</ele>
        <time>2017-07-08T08:26:24Z</time>
      </trkpt>
      <trkpt lat="59.228911675852" lon="17.94509720917">
        <ele>27.6</ele>
        <time>2017-07-08T08:26:28Z</time>
      </trkpt>
      <trkpt lat="59.228852332" lon="17.945473975575">
        <ele>27.6</ele>
        <time>2017-07-08T08:26:35Z</time>
      </trkpt>
      <trkpt lat="59.228734901581" lon="17.945761810021">
        <ele>27.6</ele>
        <time>2017-07-08T08:26:41Z</time>
      </trkpt>
      <trkpt lat="59.228546895564" lon="17.945972698625">
        <ele>27.6</ele>
        <time>2017-07-08T08:26:49Z</time>
      </trkpt>
      <trkpt lat="59.228496604164" lon="17.946037574531">
        <ele>28</ele>
        <time>2017-07-08T08:26:51Z</time>
      </trkpt>
      <trkpt lat="59.228473721577" lon="17.94607202414">
        <ele>28.4</ele>
        <time>2017-07-08T08:26:52Z</time>
      </trkpt>
      <trkpt lat="59.228448240601" lon="17.946098175668">
        <ele>28.8</ele>
        <time>2017-07-08T08:26:53Z</time>
      </trkpt>
      <trkpt lat="59.228424268367" lon="17.946125500662">
        <ele>29.2</ele>
        <time>2017-07-08T08:26:54Z</time>
      </trkpt>
      <trkpt lat="59.22840390035" lon="17.946151233095">
        <ele>29.6</ele>
        <time>2017-07-08T08:26:55Z</time>
      </trkpt>
      <trkpt lat="59.228354195683" lon="17.946210157852">
        <ele>29.6</ele>
        <time>2017-07-08T08:26:57Z</time>
      </trkpt>
      <trkpt lat="59.228113132239" lon="17.946500003954">
        <ele>29.6</ele>
        <time>2017-07-08T08:27:07Z</time>
      </trkpt>
      <trkpt lat="59.227988325748" lon="17.946673593103">
        <ele>30.2</ele>
        <time>2017-07-08T08:27:13Z</time>
      </trkpt>
      <trkpt lat="59.227967119541" lon="17.946688261428">
        <ele>30.6</ele>
        <time>2017-07-08T08:27:14Z</time>
      </trkpt>
      <trkpt lat="59.227950020465" lon="17.946704522314">
        <ele>31</ele>
        <time>2017-07-08T08:27:15Z</time>
      </trkpt>
      <trkpt lat="59.227930993552" lon="17.94672245958">
        <ele>31.4</ele>
        <time>2017-07-08T08:27:16Z</time>
      </trkpt>
      <trkpt lat="59.22791523558" lon="17.946743917244">
        <ele>32</ele>
        <time>2017-07-08T08:27:17Z</time>
      </trkpt>
      <trkpt lat="59.227812641124" lon="17.946890516675">
        <ele>32</ele>
        <time>2017-07-08T08:27:24Z</time>
      </trkpt>
      <trkpt lat="59.227726559011" lon="17.946999397556">
        <ele>32</ele>
        <time>2017-07-08T08:27:29Z</time>
      </trkpt>
      <trkpt lat="59.227631256808" lon="17.94710215965">
        <ele>32</ele>
        <time>2017-07-08T08:27:34Z</time>
      </trkpt>
      <trkpt lat="59.227612062257" lon="17.9471314963">
        <ele>32</ele>
        <time>2017-07-08T08:27:35Z</time>
      </trkpt>
      <trkpt lat="59.227477616581" lon="17.947282873414">
        <ele>32</ele>
        <time>2017-07-08T08:27:41Z</time>
      </trkpt>
      <trkpt lat="59.227453560528" lon="17.94729745792">
        <ele>32</ele>
        <time>2017-07-08T08:27:42Z</time>
      </trkpt>
      <trkpt lat="59.227377033781" lon="17.947402147851">
        <ele>32</ele>
        <time>2017-07-08T08:27:46Z</time>
      </trkpt>
      <trkpt lat="59.227271170384" lon="17.947515219682">
        <ele>32.4</ele>
        <time>2017-07-08T08:27:51Z</time>
      </trkpt>
      <trkpt lat="59.227252143471" lon="17.94754891492">
        <ele>32.8</ele>
        <time>2017-07-08T08:27:52Z</time>
      </trkpt>
      <trkpt lat="59.227236217861" lon="17.947574312077">
        <ele>33.2</ele>
        <time>2017-07-08T08:27:53Z</time>
      </trkpt>
      <trkpt lat="59.227215682206" lon="17.947598116673">
        <ele>33.6</ele>
        <time>2017-07-08T08:27:54Z</time>
      </trkpt>
      <trkpt lat="59.227199169863" lon="17.947618317052">
        <ele>34</ele>
        <time>2017-07-08T08:27:55Z</time>
      </trkpt>
      <trkpt lat="59.22714326259" lon="17.947714708902">
        <ele>34</ele>
        <time>2017-07-08T08:27:58Z</time>
      </trkpt>
      <trkpt lat="59.227052402794" lon="17.947855273365">
        <ele>34</ele>
        <time>2017-07-08T08:28:03Z</time>
      </trkpt>
      <trkpt lat="59.226972355649" lon="17.947983348797">
        <ele>34</ele>
        <time>2017-07-08T08:28:08Z</time>
      </trkpt>
      <trkpt lat="59.22688845283" lon="17.94815241172">
        <ele>34</ele>
        <time>2017-07-08T08:28:13Z</time>
      </trkpt>
      <trkpt lat="59.226830533901" lon="17.948354331691">
        <ele>34</ele>
        <time>2017-07-08T08:28:18Z</time>
      </trkpt>
      <trkpt lat="59.226717042975" lon="17.948594389307">
        <ele>34</ele>
        <time>2017-07-08T08:28:23Z</time>
      </trkpt>
      <trkpt lat="59.226578071073" lon="17.948845678669">
        <ele>34</ele>
        <time>2017-07-08T08:28:28Z</time>
      </trkpt>
      <trkpt lat="59.226414791661" lon="17.949145750689">
        <ele>34</ele>
        <time>2017-07-08T08:28:35Z</time>
      </trkpt>
      <trkpt lat="59.226393669273" lon="17.949159161729">
        <ele>34</ele>
        <time>2017-07-08T08:28:36Z</time>
      </trkpt>
      <trkpt lat="59.226366009003" lon="17.949251362629">
        <ele>34</ele>
        <time>2017-07-08T08:28:38Z</time>
      </trkpt>
      <trkpt lat="59.226301636011" lon="17.949476081368">
        <ele>34</ele>
        <time>2017-07-08T08:28:42Z</time>
      </trkpt>
      <trkpt lat="59.226207339636" lon="17.949884028441">
        <ele>34</ele>
        <time>2017-07-08T08:28:48Z</time>
      </trkpt>
      <trkpt lat="59.226123939731" lon="17.950192230904">
        <ele>34</ele>
        <time>2017-07-08T08:28:53Z</time>
      </trkpt>
      <trkpt lat="59.226044144043" lon="17.950480149169">
        <ele>34</ele>
        <time>2017-07-08T08:28:58Z</time>
      </trkpt>
      <trkpt lat="59.225916403887" lon="17.950833530073">
        <ele>34</ele>
        <time>2017-07-08T08:29:03Z</time>
      </trkpt>
      <trkpt lat="59.22581054049" lon="17.95102740342">
        <ele>33.6</ele>
        <time>2017-07-08T08:29:06Z</time>
      </trkpt>
      <trkpt lat="59.225765864963" lon="17.951074258241">
        <ele>33.2</ele>
        <time>2017-07-08T08:29:07Z</time>
      </trkpt>
      <trkpt lat="59.225712891355" lon="17.951105941823">
        <ele>32.6</ele>
        <time>2017-07-08T08:29:08Z</time>
      </trkpt>
      <trkpt lat="59.225654469512" lon="17.951107366746">
        <ele>32.2</ele>
        <time>2017-07-08T08:29:09Z</time>
      </trkpt>
      <trkpt lat="59.22559596385" lon="17.951098565751">
        <ele>31.8</ele>
        <time>2017-07-08T08:29:10Z</time>
      </trkpt>
      <trkpt lat="59.225531255582" lon="17.951105103633">
        <ele>31.4</ele>
        <time>2017-07-08T08:29:11Z</time>
      </trkpt>
      <trkpt lat="59.225470738264" lon="17.951113066438">
        <ele>31</ele>
        <time>2017-07-08T08:29:12Z</time>
      </trkpt>
      <trkpt lat="59.225403012512" lon="17.951122621804">
        <ele>30.4</ele>
        <time>2017-07-08T08:29:13Z</time>
      </trkpt>
      <trkpt lat="59.225342411375" lon="17.951119352863">
        <ele>30</ele>
        <time>2017-07-08T08:29:14Z</time>
      </trkpt>
      <trkpt lat="59.225283905713" lon="17.951120610148">
        <ele>29.4</ele>
        <time>2017-07-08T08:29:15Z</time>
      </trkpt>
      <trkpt lat="59.225230764467" lon="17.951118011759">
        <ele>29.4</ele>
        <time>2017-07-08T08:29:16Z</time>
      </trkpt>
      <trkpt lat="59.225121213034" lon="17.951135781387">
        <ele>29.4</ele>
        <time>2017-07-08T08:29:18Z</time>
      </trkpt>
      <trkpt lat="59.225062791191" lon="17.951141061984">
        <ele>29</ele>
        <time>2017-07-08T08:29:19Z</time>
      </trkpt>
      <trkpt lat="59.225015852551" lon="17.951121113062">
        <ele>28.6</ele>
        <time>2017-07-08T08:29:20Z</time>
      </trkpt>
      <trkpt lat="59.224974948879" lon="17.951086328177">
        <ele>28.2</ele>
        <time>2017-07-08T08:29:21Z</time>
      </trkpt>
      <trkpt lat="59.224927004411" lon="17.951109629859">
        <ele>27.8</ele>
        <time>2017-07-08T08:29:22Z</time>
      </trkpt>
      <trkpt lat="59.224888363852" lon="17.951137876862">
        <ele>27.4</ele>
        <time>2017-07-08T08:29:23Z</time>
      </trkpt>
      <trkpt lat="59.224875623364" lon="17.951217253455">
        <ele>27.4</ele>
        <time>2017-07-08T08:29:24Z</time>
      </trkpt>
      <trkpt lat="59.224848046913" lon="17.951352118226">
        <ele>27.4</ele>
        <time>2017-07-08T08:29:26Z</time>
      </trkpt>
      <trkpt lat="59.224821811566" lon="17.951495783992">
        <ele>27.4</ele>
        <time>2017-07-08T08:29:28Z</time>
      </trkpt>
      <trkpt lat="59.224785182663" lon="17.951944467099">
        <ele>27.4</ele>
        <time>2017-07-08T08:29:35Z</time>
      </trkpt>
      <trkpt lat="59.224809406354" lon="17.952517537602">
        <ele>27.4</ele>
        <time>2017-07-08T08:29:43Z</time>
      </trkpt>
      <trkpt lat="59.224793061649" lon="17.952853148878">
        <ele>27.4</ele>
        <time>2017-07-08T08:29:48Z</time>
      </trkpt>
      <trkpt lat="59.224754337271" lon="17.952933279842">
        <ele>27.4</ele>
        <time>2017-07-08T08:29:50Z</time>
      </trkpt>
      <trkpt lat="59.224723575698" lon="17.953014416634">
        <ele>27.4</ele>
        <time>2017-07-08T08:29:52Z</time>
      </trkpt>
      <trkpt lat="59.224669680081" lon="17.953136540917">
        <ele>27.4</ele>
        <time>2017-07-08T08:29:55Z</time>
      </trkpt>
      <trkpt lat="59.224534312396" lon="17.953288337126">
        <ele>27.4</ele>
        <time>2017-07-08T08:30:00Z</time>
      </trkpt>
      <trkpt lat="59.224384695481" lon="17.953445916846">
        <ele>27.4</ele>
        <time>2017-07-08T08:30:05Z</time>
      </trkpt>
      <trkpt lat="59.224278832084" lon="17.953338377069">
        <ele>27.4</ele>
        <time>2017-07-08T08:30:09Z</time>
      </trkpt>
      <trkpt lat="59.224145224598" lon="17.95315975878">
        <ele>27.4</ele>
        <time>2017-07-08T08:30:16Z</time>
      </trkpt>
      <trkpt lat="59.223996194416" lon="17.952988851839">
        <ele>27.4</ele>
        <time>2017-07-08T08:30:24Z</time>
      </trkpt>
      <trkpt lat="59.22391706928" lon="17.952885503012">
        <ele>27.8</ele>
        <time>2017-07-08T08:30:28Z</time>
      </trkpt>
      <trkpt lat="59.223897287996" lon="17.952856501638">
        <ele>28.2</ele>
        <time>2017-07-08T08:30:29Z</time>
      </trkpt>
      <trkpt lat="59.223881194748" lon="17.952828422273">
        <ele>28.6</ele>
        <time>2017-07-08T08:30:30Z</time>
      </trkpt>
      <trkpt lat="59.223861329645" lon="17.952801181098">
        <ele>29</ele>
        <time>2017-07-08T08:30:31Z</time>
      </trkpt>
      <trkpt lat="59.223837105954" lon="17.952777376502">
        <ele>29.4</ele>
        <time>2017-07-08T08:30:32Z</time>
      </trkpt>
      <trkpt lat="59.223814391005" lon="17.952756840847">
        <ele>29.4</ele>
        <time>2017-07-08T08:30:33Z</time>
      </trkpt>
      <trkpt lat="59.223744737416" lon="17.952680565557">
        <ele>29.8</ele>
        <time>2017-07-08T08:30:37Z</time>
      </trkpt>
      <trkpt lat="59.223722776838" lon="17.952664472309">
        <ele>30.2</ele>
        <time>2017-07-08T08:30:38Z</time>
      </trkpt>
      <trkpt lat="59.223704001382" lon="17.952646618862">
        <ele>30.6</ele>
        <time>2017-07-08T08:30:39Z</time>
      </trkpt>
      <trkpt lat="59.223688494867" lon="17.952631950537">
        <ele>31</ele>
        <time>2017-07-08T08:30:40Z</time>
      </trkpt>
      <trkpt lat="59.22366980323" lon="17.952612336891">
        <ele>31.4</ele>
        <time>2017-07-08T08:30:41Z</time>
      </trkpt>
      <trkpt lat="59.223593444121" lon="17.95252357257">
        <ele>31.4</ele>
        <time>2017-07-08T08:30:45Z</time>
      </trkpt>
      <trkpt lat="59.223515743908" lon="17.952435981715">
        <ele>31.4</ele>
        <time>2017-07-08T08:30:49Z</time>
      </trkpt>
      <trkpt lat="59.223501746135" lon="17.952408153807">
        <ele>32</ele>
        <time>2017-07-08T08:30:50Z</time>
      </trkpt>
      <trkpt lat="59.22348875419" lon="17.952387282876">
        <ele>32.4</ele>
        <time>2017-07-08T08:30:51Z</time>
      </trkpt>
      <trkpt lat="59.223473415313" lon="17.952367166316">
        <ele>32.8</ele>
        <time>2017-07-08T08:30:52Z</time>
      </trkpt>
      <trkpt lat="59.223460926282" lon="17.952345457195">
        <ele>33.2</ele>
        <time>2017-07-08T08:30:53Z</time>
      </trkpt>
      <trkpt lat="59.22344181555" lon="17.952326849377">
        <ele>33.6</ele>
        <time>2017-07-08T08:30:54Z</time>
      </trkpt>
      <trkpt lat="59.223360092025" lon="17.952212687899">
        <ele>33.6</ele>
        <time>2017-07-08T08:30:59Z</time>
      </trkpt>
      <trkpt lat="59.223316170869" lon="17.952136580247">
        <ele>34</ele>
        <time>2017-07-08T08:31:02Z</time>
      </trkpt>
      <trkpt lat="59.223304939123" lon="17.952118056248">
        <ele>34.4</ele>
        <time>2017-07-08T08:31:03Z</time>
      </trkpt>
      <trkpt lat="59.223288259142" lon="17.952098861697">
        <ele>34.8</ele>
        <time>2017-07-08T08:31:04Z</time>
      </trkpt>
      <trkpt lat="59.223270154238" lon="17.95207597911">
        <ele>35.2</ele>
        <time>2017-07-08T08:31:05Z</time>
      </trkpt>
      <trkpt lat="59.223255485913" lon="17.95204831884">
        <ele>35.6</ele>
        <time>2017-07-08T08:31:06Z</time>
      </trkpt>
      <trkpt lat="59.223239308846" lon="17.952018563095">
        <ele>35.6</ele>
        <time>2017-07-08T08:31:07Z</time>
      </trkpt>
      <trkpt lat="59.223157166226" lon="17.951870538741">
        <ele>35.6</ele>
        <time>2017-07-08T08:31:12Z</time>
      </trkpt>
      <trkpt lat="59.223114418536" lon="17.951816559305">
        <ele>36</ele>
        <time>2017-07-08T08:31:15Z</time>
      </trkpt>
      <trkpt lat="59.223104695532" lon="17.951790072501">
        <ele>36.4</ele>
        <time>2017-07-08T08:31:16Z</time>
      </trkpt>
      <trkpt lat="59.22309312851" lon="17.951760484394">
        <ele>37</ele>
        <time>2017-07-08T08:31:17Z</time>
      </trkpt>
      <trkpt lat="59.223081896764" lon="17.951732488848">
        <ele>37.4</ele>
        <time>2017-07-08T08:31:18Z</time>
      </trkpt>
      <trkpt lat="59.223067647534" lon="17.951709019528">
        <ele>37.8</ele>
        <time>2017-07-08T08:31:19Z</time>
      </trkpt>
      <trkpt lat="59.223052476295" lon="17.95168873533">
        <ele>37.8</ele>
        <time>2017-07-08T08:31:20Z</time>
      </trkpt>
      <trkpt lat="59.223003609818" lon="17.951576669327">
        <ele>37.8</ele>
        <time>2017-07-08T08:31:24Z</time>
      </trkpt>
      <trkpt lat="59.222919204085" lon="17.951376006641">
        <ele>37.8</ele>
        <time>2017-07-08T08:31:31Z</time>
      </trkpt>
      <trkpt lat="59.222899590439" lon="17.951337952815">
        <ele>37.8</ele>
        <time>2017-07-08T08:31:34Z</time>
      </trkpt>
      <trkpt lat="59.222897327326" lon="17.951328145992">
        <ele>39.8</ele>
        <time>2017-07-08T08:32:09Z</time>
      </trkpt>
      <trkpt lat="59.22283077504" lon="17.951286907044">
        <ele>39.8</ele>
        <time>2017-07-08T08:32:13Z</time>
      </trkpt>
      <trkpt lat="59.222715440096" lon="17.951092027869">
        <ele>39.8</ele>
        <time>2017-07-08T08:32:19Z</time>
      </trkpt>
      <trkpt lat="59.222621478997" lon="17.950868650234">
        <ele>39.8</ele>
        <time>2017-07-08T08:32:25Z</time>
      </trkpt>
      <trkpt lat="59.2225323794" lon="17.950681817683">
        <ele>39.8</ele>
        <time>2017-07-08T08:32:30Z</time>
      </trkpt>
      <trkpt lat="59.222354515482" lon="17.950351319366">
        <ele>39.8</ele>
        <time>2017-07-08T08:32:38Z</time>
      </trkpt>
      <trkpt lat="59.222288382291" lon="17.950215532586">
        <ele>40.2</ele>
        <time>2017-07-08T08:32:41Z</time>
      </trkpt>
      <trkpt lat="59.222263907143" lon="17.95016825867">
        <ele>40.6</ele>
        <time>2017-07-08T08:32:42Z</time>
      </trkpt>
      <trkpt lat="59.222241108375" lon="17.950126013894">
        <ele>41</ele>
        <time>2017-07-08T08:32:43Z</time>
      </trkpt>
      <trkpt lat="59.222219650711" lon="17.950086032231">
        <ele>41.4</ele>
        <time>2017-07-08T08:32:44Z</time>
      </trkpt>
      <trkpt lat="59.222196684305" lon="17.950046302025">
        <ele>41.8</ele>
        <time>2017-07-08T08:32:45Z</time>
      </trkpt>
      <trkpt lat="59.222029800676" lon="17.949749582765">
        <ele>41.8</ele>
        <time>2017-07-08T08:32:52Z</time>
      </trkpt>
      <trkpt lat="59.221810362534" lon="17.949415480231">
        <ele>41.8</ele>
        <time>2017-07-08T08:33:00Z</time>
      </trkpt>
      <trkpt lat="59.221642808353" lon="17.949183972153">
        <ele>41.8</ele>
        <time>2017-07-08T08:33:07Z</time>
      </trkpt>
      <trkpt lat="59.221491850334" lon="17.94897048516">
        <ele>41.8</ele>
        <time>2017-07-08T08:33:13Z</time>
      </trkpt>
      <trkpt lat="59.22128263811" lon="17.948682734533">
        <ele>41.8</ele>
        <time>2017-07-08T08:33:21Z</time>
      </trkpt>
      <trkpt lat="59.221164872415" lon="17.948479222001">
        <ele>41.8</ele>
        <time>2017-07-08T08:33:27Z</time>
      </trkpt>
      <trkpt lat="59.22103621025" lon="17.948170265167">
        <ele>41.8</ele>
        <time>2017-07-08T08:33:34Z</time>
      </trkpt>
      <trkpt lat="59.220939147848" lon="17.947983013521">
        <ele>41.8</ele>
        <time>2017-07-08T08:33:40Z</time>
      </trkpt>
      <trkpt lat="59.220814425176" lon="17.947727365571">
        <ele>41.8</ele>
        <time>2017-07-08T08:33:46Z</time>
      </trkpt>
      <trkpt lat="59.220636225982" lon="17.947437100374">
        <ele>41.8</ele>
        <time>2017-07-08T08:33:52Z</time>
      </trkpt>
      <trkpt lat="59.220460792815" lon="17.947168795755">
        <ele>41.8</ele>
        <time>2017-07-08T08:33:57Z</time>
      </trkpt>
      <trkpt lat="59.220432461993" lon="17.94708707223">
        <ele>41.8</ele>
        <time>2017-07-08T08:33:58Z</time>
      </trkpt>
      <trkpt lat="59.220408992673" lon="17.946829580262">
        <ele>41.8</ele>
        <time>2017-07-08T08:34:01Z</time>
      </trkpt>
      <trkpt lat="59.220401281325" lon="17.946656158751">
        <ele>41.8</ele>
        <time>2017-07-08T08:34:05Z</time>
      </trkpt>
      <trkpt lat="59.220395078719" lon="17.946501428877">
        <ele>41.8</ele>
        <time>2017-07-08T08:34:11Z</time>
      </trkpt>
      <trkpt lat="59.22039667128" lon="17.946474858254">
        <ele>41.8</ele>
        <time>2017-07-08T08:34:12Z</time>
      </trkpt>
      <trkpt lat="59.220396000728" lon="17.946304705684">
        <ele>41.8</ele>
        <time>2017-07-08T08:34:17Z</time>
      </trkpt>
      <trkpt lat="59.220399688764" lon="17.946202027409">
        <ele>42.4</ele>
        <time>2017-07-08T08:34:20Z</time>
      </trkpt>
      <trkpt lat="59.220403292981" lon="17.94616506323">
        <ele>42.8</ele>
        <time>2017-07-08T08:34:21Z</time>
      </trkpt>
      <trkpt lat="59.220404298809" lon="17.946130110707">
        <ele>43.2</ele>
        <time>2017-07-08T08:34:22Z</time>
      </trkpt>
      <trkpt lat="59.220407148655" lon="17.946093481804">
        <ele>43.6</ele>
        <time>2017-07-08T08:34:23Z</time>
      </trkpt>
      <trkpt lat="59.220408657397" lon="17.946056266168">
        <ele>44</ele>
        <time>2017-07-08T08:34:24Z</time>
      </trkpt>
      <trkpt lat="59.220427432853" lon="17.945882006467">
        <ele>44</ele>
        <time>2017-07-08T08:34:29Z</time>
      </trkpt>
      <trkpt lat="59.220440676255" lon="17.945771700663">
        <ele>44.4</ele>
        <time>2017-07-08T08:34:32Z</time>
      </trkpt>
      <trkpt lat="59.220446292128" lon="17.945735490855">
        <ele>44.8</ele>
        <time>2017-07-08T08:34:33Z</time>
      </trkpt>
      <trkpt lat="59.220453416743" lon="17.945701795617">
        <ele>45.2</ele>
        <time>2017-07-08T08:34:34Z</time>
      </trkpt>
      <trkpt lat="59.220462636833" lon="17.945671956053">
        <ele>45.6</ele>
        <time>2017-07-08T08:34:35Z</time>
      </trkpt>
      <trkpt lat="59.220471354009" lon="17.945645804525">
        <ele>46</ele>
        <time>2017-07-08T08:34:36Z</time>
      </trkpt>
      <trkpt lat="59.220534553535" lon="17.945433155722">
        <ele>46</ele>
        <time>2017-07-08T08:34:43Z</time>
      </trkpt>
      <trkpt lat="59.220548216032" lon="17.94540733947">
        <ele>46.4</ele>
        <time>2017-07-08T08:34:44Z</time>
      </trkpt>
      <trkpt lat="59.220559447778" lon="17.945376158802">
        <ele>46.8</ele>
        <time>2017-07-08T08:34:45Z</time>
      </trkpt>
      <trkpt lat="59.220570763343" lon="17.945346570695">
        <ele>47.2</ele>
        <time>2017-07-08T08:34:46Z</time>
      </trkpt>
      <trkpt lat="59.2205793967" lon="17.945315390027">
        <ele>47.8</ele>
        <time>2017-07-08T08:34:47Z</time>
      </trkpt>
      <trkpt lat="59.220591215179" lon="17.945288903223">
        <ele>48.2</ele>
        <time>2017-07-08T08:34:48Z</time>
      </trkpt>
      <trkpt lat="59.220606889332" lon="17.945260572401">
        <ele>48.2</ele>
        <time>2017-07-08T08:34:49Z</time>
      </trkpt>
      <trkpt lat="59.220694983101" lon="17.945030908341">
        <ele>48.2</ele>
        <time>2017-07-08T08:34:55Z</time>
      </trkpt>
      <trkpt lat="59.220738568981" lon="17.944753132175">
        <ele>48.2</ele>
        <time>2017-07-08T08:35:01Z</time>
      </trkpt>
      <trkpt lat="59.220796152634" lon="17.944385837317">
        <ele>48.2</ele>
        <time>2017-07-08T08:35:08Z</time>
      </trkpt>
      <trkpt lat="59.220849126242" lon="17.944043939616">
        <ele>48.2</ele>
        <time>2017-07-08T08:35:13Z</time>
      </trkpt>
      <trkpt lat="59.220842085446" lon="17.943817460678">
        <ele>48.2</ele>
        <time>2017-07-08T08:35:18Z</time>
      </trkpt>
      <trkpt lat="59.220795733539" lon="17.943629622299">
        <ele>48.2</ele>
        <time>2017-07-08T08:35:24Z</time>
      </trkpt>
      <trkpt lat="59.220746364148" lon="17.943470366199">
        <ele>48.2</ele>
        <time>2017-07-08T08:35:29Z</time>
      </trkpt>
      <trkpt lat="59.220731779642" lon="17.943446226327">
        <ele>48.6</ele>
        <time>2017-07-08T08:35:30Z</time>
      </trkpt>
      <trkpt lat="59.220717446593" lon="17.943417979324">
        <ele>49</ele>
        <time>2017-07-08T08:35:31Z</time>
      </trkpt>
      <trkpt lat="59.220704622286" lon="17.94339149252">
        <ele>49.4</ele>
        <time>2017-07-08T08:35:32Z</time>
      </trkpt>
      <trkpt lat="59.220691127427" lon="17.943365760087">
        <ele>49.8</ele>
        <time>2017-07-08T08:35:33Z</time>
      </trkpt>
      <trkpt lat="59.220677716387" lon="17.943346397898">
        <ele>50.2</ele>
        <time>2017-07-08T08:35:34Z</time>
      </trkpt>
      <trkpt lat="59.220643015321" lon="17.943304823674">
        <ele>50.2</ele>
        <time>2017-07-08T08:35:37Z</time>
      </trkpt>
      <trkpt lat="59.220640249294" lon="17.943299710715">
        <ele>50.2</ele>
        <time>2017-07-08T08:35:38Z</time>
      </trkpt>
      <trkpt lat="59.220626167702" lon="17.943280935259">
        <ele>50.2</ele>
        <time>2017-07-08T08:35:55Z</time>
      </trkpt>
      <trkpt lat="59.220601944011" lon="17.943242881433">
        <ele>50.2</ele>
        <time>2017-07-08T08:35:57Z</time>
      </trkpt>
      <trkpt lat="59.22050479779" lon="17.94308052403">
        <ele>50.2</ele>
        <time>2017-07-08T08:36:02Z</time>
      </trkpt>
      <trkpt lat="59.220482585755" lon="17.943018581789">
        <ele>50.2</ele>
        <time>2017-07-08T08:36:04Z</time>
      </trkpt>
      <trkpt lat="59.220489794189" lon="17.94293970811">
        <ele>50.2</ele>
        <time>2017-07-08T08:36:06Z</time>
      </trkpt>
      <trkpt lat="59.220503624324" lon="17.942817667646">
        <ele>50.2</ele>
        <time>2017-07-08T08:36:09Z</time>
      </trkpt>
      <trkpt lat="59.220491135293" lon="17.942773075938">
        <ele>50.2</ele>
        <time>2017-07-08T08:36:10Z</time>
      </trkpt>
      <trkpt lat="59.220439754246" lon="17.94266813455">
        <ele>50.2</ele>
        <time>2017-07-08T08:36:14Z</time>
      </trkpt>
      <trkpt lat="59.220387032095" lon="17.942575263098">
        <ele>50.2</ele>
        <time>2017-07-08T08:36:18Z</time>
      </trkpt>
      <trkpt lat="59.220373453417" lon="17.942559756583">
        <ele>50.6</ele>
        <time>2017-07-08T08:36:19Z</time>
      </trkpt>
      <trkpt lat="59.220359204187" lon="17.942546680819">
        <ele>51</ele>
        <time>2017-07-08T08:36:20Z</time>
      </trkpt>
      <trkpt lat="59.2203447035" lon="17.942528073001">
        <ele>51.4</ele>
        <time>2017-07-08T08:36:21Z</time>
      </trkpt>
      <trkpt lat="59.220328442614" lon="17.94249714379">
        <ele>51.8</ele>
        <time>2017-07-08T08:36:22Z</time>
      </trkpt>
      <trkpt lat="59.22031033771" lon="17.942464202923">
        <ele>52.2</ele>
        <time>2017-07-08T08:36:23Z</time>
      </trkpt>
      <trkpt lat="59.220229703832" lon="17.942360686458">
        <ele>52.2</ele>
        <time>2017-07-08T08:36:27Z</time>
      </trkpt>
      <trkpt lat="59.220194751309" lon="17.942303102805">
        <ele>52.2</ele>
        <time>2017-07-08T08:36:29Z</time>
      </trkpt>
      <trkpt lat="59.220162983908" lon="17.942236801976">
        <ele>52.2</ele>
        <time>2017-07-08T08:36:31Z</time>
      </trkpt>
      <trkpt lat="59.220145633375" lon="17.942214506122">
        <ele>52.2</ele>
        <time>2017-07-08T08:36:32Z</time>
      </trkpt>
      <trkpt lat="59.220082014754" lon="17.942135297167">
        <ele>52.6</ele>
        <time>2017-07-08T08:36:35Z</time>
      </trkpt>
      <trkpt lat="59.220061311461" lon="17.94211325277">
        <ele>53</ele>
        <time>2017-07-08T08:36:36Z</time>
      </trkpt>
      <trkpt lat="59.220044799118" lon="17.942085341043">
        <ele>53.4</ele>
        <time>2017-07-08T08:36:37Z</time>
      </trkpt>
      <trkpt lat="59.220030717526" lon="17.94205457947">
        <ele>53.8</ele>
        <time>2017-07-08T08:36:38Z</time>
      </trkpt>
      <trkpt lat="59.220014791916" lon="17.942028511761">
        <ele>54.2</ele>
        <time>2017-07-08T08:36:39Z</time>
      </trkpt>
      <trkpt lat="59.219997106107" lon="17.94200680264">
        <ele>54.2</ele>
        <time>2017-07-08T08:36:40Z</time>
      </trkpt>
      <trkpt lat="59.219901133352" lon="17.941853749146">
        <ele>54.2</ele>
        <time>2017-07-08T08:36:46Z</time>
      </trkpt>
      <trkpt lat="59.219792168652" lon="17.941681501101">
        <ele>54.2</ele>
        <time>2017-07-08T08:36:52Z</time>
      </trkpt>
      <trkpt lat="59.21973114842" lon="17.941596424816">
        <ele>54.2</ele>
        <time>2017-07-08T08:36:56Z</time>
      </trkpt>
      <trkpt lat="59.219726370737" lon="17.941596005721">
        <ele>54.6</ele>
        <time>2017-07-08T08:36:57Z</time>
      </trkpt>
      <trkpt lat="59.21971438462" lon="17.941580415387">
        <ele>55</ele>
        <time>2017-07-08T08:36:58Z</time>
      </trkpt>
      <trkpt lat="59.219696531173" lon="17.94156172375">
        <ele>55.4</ele>
        <time>2017-07-08T08:36:59Z</time>
      </trkpt>
      <trkpt lat="59.219680773201" lon="17.941556359334">
        <ele>55.8</ele>
        <time>2017-07-08T08:37:00Z</time>
      </trkpt>
      <trkpt lat="59.219668116532" lon="17.941579996292">
        <ele>56.2</ele>
        <time>2017-07-08T08:37:01Z</time>
      </trkpt>
      <trkpt lat="59.219661159555" lon="17.941650907166">
        <ele>56.2</ele>
        <time>2017-07-08T08:37:03Z</time>
      </trkpt>
      <trkpt lat="59.219664596134" lon="17.941680076178">
        <ele>56.2</ele>
        <time>2017-07-08T08:37:04Z</time>
      </trkpt>
      <trkpt lat="59.219684377418" lon="17.941770265422">
        <ele>56.2</ele>
        <time>2017-07-08T08:37:09Z</time>
      </trkpt>
      <trkpt lat="59.219619417693" lon="17.941678148341">
        <ele>54.2</ele>
        <time>2017-07-08T08:41:17Z</time>
      </trkpt>
      <trkpt lat="59.219590835414" lon="17.941591228038">
        <ele>54.2</ele>
        <time>2017-07-08T08:41:19Z</time>
      </trkpt>
      <trkpt lat="59.21951908635" lon="17.941399450166">
        <ele>54.2</ele>
        <time>2017-07-08T08:41:23Z</time>
      </trkpt>
      <trkpt lat="59.219483379456" lon="17.941256874047">
        <ele>54.2</ele>
        <time>2017-07-08T08:41:26Z</time>
      </trkpt>
      <trkpt lat="59.219454629539" lon="17.941099797241">
        <ele>54.2</ele>
        <time>2017-07-08T08:41:29Z</time>
      </trkpt>
      <trkpt lat="59.21939251966" lon="17.940932075422">
        <ele>54.2</ele>
        <time>2017-07-08T08:41:33Z</time>
      </trkpt>
      <trkpt lat="59.219299229113" lon="17.940741890111">
        <ele>54.2</ele>
        <time>2017-07-08T08:41:38Z</time>
      </trkpt>
      <trkpt lat="59.219148857827" lon="17.94050392797">
        <ele>54.2</ele>
        <time>2017-07-08T08:41:44Z</time>
      </trkpt>
      <trkpt lat="59.218999240912" lon="17.940298655239">
        <ele>54.2</ele>
        <time>2017-07-08T08:41:49Z</time>
      </trkpt>
      <trkpt lat="59.21879740476" lon="17.940056083053">
        <ele>54.2</ele>
        <time>2017-07-08T08:41:56Z</time>
      </trkpt>
      <trkpt lat="59.218626665457" lon="17.939795154506">
        <ele>54.2</ele>
        <time>2017-07-08T08:42:03Z</time>
      </trkpt>
      <trkpt lat="59.218498757663" lon="17.93961963752">
        <ele>54.2</ele>
        <time>2017-07-08T08:42:09Z</time>
      </trkpt>
      <trkpt lat="59.218419045794" lon="17.939493406106">
        <ele>54.2</ele>
        <time>2017-07-08T08:42:13Z</time>
      </trkpt>
      <trkpt lat="59.218329024188" lon="17.939326522477">
        <ele>54.2</ele>
        <time>2017-07-08T08:42:18Z</time>
      </trkpt>
      <trkpt lat="59.218297927339" lon="17.939262652399">
        <ele>54.2</ele>
        <time>2017-07-08T08:42:20Z</time>
      </trkpt>
      <trkpt lat="59.21826515411" lon="17.93922401184">
        <ele>54.2</ele>
        <time>2017-07-08T08:42:22Z</time>
      </trkpt>
      <trkpt lat="59.218160883274" lon="17.939198111769">
        <ele>54.2</ele>
        <time>2017-07-08T08:42:26Z</time>
      </trkpt>
      <trkpt lat="59.218123919095" lon="17.939200793977">
        <ele>54.2</ele>
        <time>2017-07-08T08:42:27Z</time>
      </trkpt>
      <trkpt lat="59.21802710815" lon="17.939115214778">
        <ele>54.2</ele>
        <time>2017-07-08T08:42:32Z</time>
      </trkpt>
      <trkpt lat="59.217951335774" lon="17.939012620322">
        <ele>54.2</ele>
        <time>2017-07-08T08:42:36Z</time>
      </trkpt>
      <trkpt lat="59.217822003057" lon="17.938869206013">
        <ele>54.2</ele>
        <time>2017-07-08T08:42:41Z</time>
      </trkpt>
      <trkpt lat="59.217718235135" lon="17.93873953802">
        <ele>54.2</ele>
        <time>2017-07-08T08:42:45Z</time>
      </trkpt>
      <trkpt lat="59.217564762546" lon="17.938653707364">
        <ele>54.2</ele>
        <time>2017-07-08T08:42:49Z</time>
      </trkpt>
      <trkpt lat="59.217404668256" lon="17.93842186401">
        <ele>54.2</ele>
        <time>2017-07-08T08:42:54Z</time>
      </trkpt>
      <trkpt lat="59.217381282755" lon="17.938346091634">
        <ele>54.2</ele>
        <time>2017-07-08T08:42:55Z</time>
      </trkpt>
      <trkpt lat="59.217332835373" lon="17.938234277088">
        <ele>54.2</ele>
        <time>2017-07-08T08:42:57Z</time>
      </trkpt>
      <trkpt lat="59.217202832104" lon="17.938044846148">
        <ele>54.2</ele>
        <time>2017-07-08T08:43:02Z</time>
      </trkpt>
      <trkpt lat="59.21705145499" lon="17.937776625348">
        <ele>54.2</ele>
        <time>2017-07-08T08:43:09Z</time>
      </trkpt>
      <trkpt lat="59.217043576004" lon="17.937725663396">
        <ele>54.2</ele>
        <time>2017-07-08T08:43:12Z</time>
      </trkpt>
      <trkpt lat="59.217046509669" lon="17.937714264012">
        <ele>54.2</ele>
        <time>2017-07-08T08:43:19Z</time>
      </trkpt>
      <trkpt lat="59.217079618174" lon="17.937534975171">
        <ele>54.2</ele>
        <time>2017-07-08T08:43:24Z</time>
      </trkpt>
      <trkpt lat="59.217024716729" lon="17.93741268325">
        <ele>54.2</ele>
        <time>2017-07-08T08:43:28Z</time>
      </trkpt>
      <trkpt lat="59.217009210214" lon="17.937383430419">
        <ele>54.2</ele>
        <time>2017-07-08T08:43:29Z</time>
      </trkpt>
      <trkpt lat="59.216992949328" lon="17.937347891163">
        <ele>54.2</ele>
        <time>2017-07-08T08:43:31Z</time>
      </trkpt>
      <trkpt lat="59.216961433384" lon="17.937284775456">
        <ele>54.2</ele>
        <time>2017-07-08T08:44:26Z</time>
      </trkpt>
      <trkpt lat="59.216861940231" lon="17.937144043355">
        <ele>54.2</ele>
        <time>2017-07-08T08:44:31Z</time>
      </trkpt>
      <trkpt lat="59.216687009978" lon="17.936922425919">
        <ele>54.2</ele>
        <time>2017-07-08T08:44:38Z</time>
      </trkpt>
      <trkpt lat="59.216531106638" lon="17.936724696898">
        <ele>54.2</ele>
        <time>2017-07-08T08:44:43Z</time>
      </trkpt>
      <trkpt lat="59.216329521943" lon="17.936358910782">
        <ele>54.2</ele>
        <time>2017-07-08T08:44:50Z</time>
      </trkpt>
      <trkpt lat="59.216221814528" lon="17.936136538975">
        <ele>53.8</ele>
        <time>2017-07-08T08:44:54Z</time>
      </trkpt>
      <trkpt lat="59.21619901576" lon="17.936079709693">
        <ele>53.4</ele>
        <time>2017-07-08T08:44:55Z</time>
      </trkpt>
      <trkpt lat="59.216177306639" lon="17.93601961147">
        <ele>53</ele>
        <time>2017-07-08T08:44:56Z</time>
      </trkpt>
      <trkpt lat="59.216155932794" lon="17.935951131347">
        <ele>52.6</ele>
        <time>2017-07-08T08:44:57Z</time>
      </trkpt>
      <trkpt lat="59.216139755727" lon="17.935883740871">
        <ele>52</ele>
        <time>2017-07-08T08:44:58Z</time>
      </trkpt>
      <trkpt lat="59.216064821541" lon="17.935537987496">
        <ele>52</ele>
        <time>2017-07-08T08:45:03Z</time>
      </trkpt>
      <trkpt lat="59.215997598703" lon="17.935034822039">
        <ele>52</ele>
        <time>2017-07-08T08:45:10Z</time>
      </trkpt>
      <trkpt lat="59.215989971174" lon="17.934886043314">
        <ele>52</ele>
        <time>2017-07-08T08:45:12Z</time>
      </trkpt>
      <trkpt lat="59.215985361129" lon="17.93466090548">
        <ele>52</ele>
        <time>2017-07-08T08:45:15Z</time>
      </trkpt>
      <trkpt lat="59.21599198283" lon="17.934233009485">
        <ele>52</ele>
        <time>2017-07-08T08:45:21Z</time>
      </trkpt>
      <trkpt lat="59.215977649781" lon="17.933954898043">
        <ele>52</ele>
        <time>2017-07-08T08:45:25Z</time>
      </trkpt>
      <trkpt lat="59.215979661437" lon="17.933600092216">
        <ele>52</ele>
        <time>2017-07-08T08:45:30Z</time>
      </trkpt>
      <trkpt lat="59.215980583446" lon="17.933203209251">
        <ele>52</ele>
        <time>2017-07-08T08:45:36Z</time>
      </trkpt>
      <trkpt lat="59.215989552079" lon="17.932808673218">
        <ele>52</ele>
        <time>2017-07-08T08:45:42Z</time>
      </trkpt>
      <trkpt lat="59.215984522939" lon="17.932482365851">
        <ele>51.6</ele>
        <time>2017-07-08T08:45:47Z</time>
      </trkpt>
      <trkpt lat="59.215984020025" lon="17.932415897384">
        <ele>51.2</ele>
        <time>2017-07-08T08:45:48Z</time>
      </trkpt>
      <trkpt lat="59.215986366957" lon="17.932355463885">
        <ele>50.8</ele>
        <time>2017-07-08T08:45:49Z</time>
      </trkpt>
      <trkpt lat="59.215985444948" lon="17.932284217735">
        <ele>50.4</ele>
        <time>2017-07-08T08:45:50Z</time>
      </trkpt>
      <trkpt lat="59.215988462432" lon="17.93221506706">
        <ele>50</ele>
        <time>2017-07-08T08:45:51Z</time>
      </trkpt>
      <trkpt lat="59.215987624242" lon="17.932022031903">
        <ele>50</ele>
        <time>2017-07-08T08:45:54Z</time>
      </trkpt>
      <trkpt lat="59.216007740802" lon="17.931614336287">
        <ele>50</ele>
        <time>2017-07-08T08:46:00Z</time>
      </trkpt>
      <trkpt lat="59.216008076078" lon="17.931111254649">
        <ele>50</ele>
        <time>2017-07-08T08:46:07Z</time>
      </trkpt>
      <trkpt lat="59.216005058594" lon="17.931029363486">
        <ele>50</ele>
        <time>2017-07-08T08:46:08Z</time>
      </trkpt>
      <trkpt lat="59.215994748857" lon="17.930605909898">
        <ele>50</ele>
        <time>2017-07-08T08:46:14Z</time>
      </trkpt>
      <trkpt lat="59.215943032534" lon="17.93008354989">
        <ele>50</ele>
        <time>2017-07-08T08:46:21Z</time>
      </trkpt>
      <trkpt lat="59.215887879632" lon="17.929552305068">
        <ele>50</ele>
        <time>2017-07-08T08:46:28Z</time>
      </trkpt>
      <trkpt lat="59.215812777808" lon="17.929101107391">
        <ele>50</ele>
        <time>2017-07-08T08:46:35Z</time>
      </trkpt>
      <trkpt lat="59.21574974592" lon="17.928739260768">
        <ele>50</ele>
        <time>2017-07-08T08:46:41Z</time>
      </trkpt>
      <trkpt lat="59.215689144783" lon="17.928403146578">
        <ele>50</ele>
        <time>2017-07-08T08:46:47Z</time>
      </trkpt>
      <trkpt lat="59.215624101239" lon="17.928160658211">
        <ele>50</ele>
        <time>2017-07-08T08:46:52Z</time>
      </trkpt>
      <trkpt lat="59.215574983305" lon="17.927994528953">
        <ele>50</ele>
        <time>2017-07-08T08:46:56Z</time>
      </trkpt>
      <trkpt lat="59.215557716591" lon="17.92795454729">
        <ele>50</ele>
        <time>2017-07-08T08:46:57Z</time>
      </trkpt>
      <trkpt lat="59.215509604485" lon="17.927792525163">
        <ele>50</ele>
        <time>2017-07-08T08:47:01Z</time>
      </trkpt>
      <trkpt lat="59.21545051209" lon="17.927602758947">
        <ele>50</ele>
        <time>2017-07-08T08:47:06Z</time>
      </trkpt>
      <trkpt lat="59.215439028887" lon="17.927560346533">
        <ele>50</ele>
        <time>2017-07-08T08:47:07Z</time>
      </trkpt>
      <trkpt lat="59.215386222917" lon="17.927395642198">
        <ele>50.8</ele>
        <time>2017-07-08T08:47:11Z</time>
      </trkpt>
      <trkpt lat="59.215382870157" lon="17.92734350678">
        <ele>51.2</ele>
        <time>2017-07-08T08:47:12Z</time>
      </trkpt>
      <trkpt lat="59.215380271768" lon="17.927295897588">
        <ele>51.6</ele>
        <time>2017-07-08T08:47:13Z</time>
      </trkpt>
      <trkpt lat="59.215369962031" lon="17.927257424667">
        <ele>52</ele>
        <time>2017-07-08T08:47:14Z</time>
      </trkpt>
      <trkpt lat="59.215340793019" lon="17.927184166861">
        <ele>52</ele>
        <time>2017-07-08T08:47:16Z</time>
      </trkpt>
      <trkpt lat="59.215266529385" lon="17.927023066743">
        <ele>52</ele>
        <time>2017-07-08T08:47:21Z</time>
      </trkpt>
      <trkpt lat="59.215191762837" lon="17.926874874751">
        <ele>52</ele>
        <time>2017-07-08T08:47:26Z</time>
      </trkpt>
      <trkpt lat="59.215184386765" lon="17.926838581124">
        <ele>52</ele>
        <time>2017-07-08T08:47:27Z</time>
      </trkpt>
      <trkpt lat="59.215145243292" lon="17.926760042721">
        <ele>52</ele>
        <time>2017-07-08T08:47:30Z</time>
      </trkpt>
      <trkpt lat="59.215111548054" lon="17.926683599793">
        <ele>52</ele>
        <time>2017-07-08T08:47:33Z</time>
      </trkpt>
      <trkpt lat="59.215086486173" lon="17.926639846275">
        <ele>52</ele>
        <time>2017-07-08T08:47:35Z</time>
      </trkpt>
      <trkpt lat="59.215024879208" lon="17.926485535496">
        <ele>52</ele>
        <time>2017-07-08T08:47:41Z</time>
      </trkpt>
      <trkpt lat="59.215001326069" lon="17.926426191644">
        <ele>52</ele>
        <time>2017-07-08T08:47:43Z</time>
      </trkpt>
      <trkpt lat="59.214980371319" lon="17.926381851393">
        <ele>52.4</ele>
        <time>2017-07-08T08:47:45Z</time>
      </trkpt>
      <trkpt lat="59.214971654143" lon="17.926357879159">
        <ele>52.8</ele>
        <time>2017-07-08T08:47:46Z</time>
      </trkpt>
      <trkpt lat="59.214960003302" lon="17.926334409839">
        <ele>53.2</ele>
        <time>2017-07-08T08:47:47Z</time>
      </trkpt>
      <trkpt lat="59.214948184823" lon="17.926312113985">
        <ele>53.6</ele>
        <time>2017-07-08T08:47:48Z</time>
      </trkpt>
      <trkpt lat="59.214933600317" lon="17.926289315217">
        <ele>54.2</ele>
        <time>2017-07-08T08:47:49Z</time>
      </trkpt>
      <trkpt lat="59.214910969187" lon="17.92623122865">
        <ele>54.2</ele>
        <time>2017-07-08T08:47:51Z</time>
      </trkpt>
      <trkpt lat="59.214907281151" lon="17.926204658027">
        <ele>54.2</ele>
        <time>2017-07-08T08:47:52Z</time>
      </trkpt>
      <trkpt lat="59.214864282004" lon="17.926130226755">
        <ele>54.2</ele>
        <time>2017-07-08T08:47:55Z</time>
      </trkpt>
      <trkpt lat="59.214832682241" lon="17.926067530143">
        <ele>54.2</ele>
        <time>2017-07-08T08:47:57Z</time>
      </trkpt>
      <trkpt lat="59.214791359474" lon="17.92601162287">
        <ele>54.2</ele>
        <time>2017-07-08T08:47:59Z</time>
      </trkpt>
      <trkpt lat="59.214781971746" lon="17.925966612067">
        <ele>54.2</ele>
        <time>2017-07-08T08:48:00Z</time>
      </trkpt>
      <trkpt lat="59.214730255423" lon="17.925897209935">
        <ele>54.2</ele>
        <time>2017-07-08T08:48:02Z</time>
      </trkpt>
      <trkpt lat="59.214639227989" lon="17.925759411499">
        <ele>54.2</ele>
        <time>2017-07-08T08:48:07Z</time>
      </trkpt>
      <trkpt lat="59.214607544407" lon="17.925690260824">
        <ele>54.2</ele>
        <time>2017-07-08T08:48:09Z</time>
      </trkpt>
      <trkpt lat="59.214556330998" lon="17.92558079321">
        <ele>54.2</ele>
        <time>2017-07-08T08:48:13Z</time>
      </trkpt>
      <trkpt lat="59.21445893332" lon="17.925383986198">
        <ele>54.2</ele>
        <time>2017-07-08T08:48:19Z</time>
      </trkpt>
      <trkpt lat="59.214400846753" lon="17.925204529719">
        <ele>54.2</ele>
        <time>2017-07-08T08:48:24Z</time>
      </trkpt>
      <trkpt lat="59.214361954737" lon="17.92509296663">
        <ele>54.2</ele>
        <time>2017-07-08T08:48:27Z</time>
      </trkpt>
      <trkpt lat="59.214323397997" lon="17.925026330525">
        <ele>54.2</ele>
        <time>2017-07-08T08:48:29Z</time>
      </trkpt>
      <trkpt lat="59.214223150473" lon="17.924822817993">
        <ele>54.2</ele>
        <time>2017-07-08T08:48:34Z</time>
      </trkpt>
      <trkpt lat="59.2140834242" lon="17.924542611076">
        <ele>54.2</ele>
        <time>2017-07-08T08:48:41Z</time>
      </trkpt>
      <trkpt lat="59.213989714558" lon="17.924344546779">
        <ele>54.6</ele>
        <time>2017-07-08T08:48:46Z</time>
      </trkpt>
      <trkpt lat="59.213972196387" lon="17.924306409134">
        <ele>55</ele>
        <time>2017-07-08T08:48:47Z</time>
      </trkpt>
      <trkpt lat="59.213952498922" lon="17.924268774403">
        <ele>55.4</ele>
        <time>2017-07-08T08:48:48Z</time>
      </trkpt>
      <trkpt lat="59.21393506457" lon="17.924229966206">
        <ele>55.8</ele>
        <time>2017-07-08T08:48:49Z</time>
      </trkpt>
      <trkpt lat="59.213920312426" lon="17.924190236">
        <ele>56.2</ele>
        <time>2017-07-08T08:48:50Z</time>
      </trkpt>
      <trkpt lat="59.213854430692" lon="17.924022430362">
        <ele>56.2</ele>
        <time>2017-07-08T08:48:54Z</time>
      </trkpt>
      <trkpt lat="59.213784777103" lon="17.923708192931">
        <ele>56.2</ele>
        <time>2017-07-08T08:49:01Z</time>
      </trkpt>
      <trkpt lat="59.2137732939" lon="17.923672150761">
        <ele>56.2</ele>
        <time>2017-07-08T08:49:02Z</time>
      </trkpt>
      <trkpt lat="59.21374395725" lon="17.92350040563">
        <ele>56.2</ele>
        <time>2017-07-08T08:49:06Z</time>
      </trkpt>
      <trkpt lat="59.213735072436" lon="17.923419771752">
        <ele>56.2</ele>
        <time>2017-07-08T08:49:08Z</time>
      </trkpt>
      <trkpt lat="59.21370204775" lon="17.923182899258">
        <ele>56.2</ele>
        <time>2017-07-08T08:49:13Z</time>
      </trkpt>
      <trkpt lat="59.213667849598" lon="17.922827171422">
        <ele>56.2</ele>
        <time>2017-07-08T08:49:18Z</time>
      </trkpt>
      <trkpt lat="59.213671118539" lon="17.92274268187">
        <ele>56.2</ele>
        <time>2017-07-08T08:49:19Z</time>
      </trkpt>
      <trkpt lat="59.213676315317" lon="17.922477394735">
        <ele>56.2</ele>
        <time>2017-07-08T08:49:22Z</time>
      </trkpt>
      <trkpt lat="59.213700203732" lon="17.922046900351">
        <ele>56.2</ele>
        <time>2017-07-08T08:49:27Z</time>
      </trkpt>
      <trkpt lat="59.213715207333" lon="17.921595115941">
        <ele>56.2</ele>
        <time>2017-07-08T08:49:32Z</time>
      </trkpt>
      <trkpt lat="59.213714452962" lon="17.921261013407">
        <ele>56.2</ele>
        <time>2017-07-08T08:49:37Z</time>
      </trkpt>
      <trkpt lat="59.213732893142" lon="17.921063368205">
        <ele>56.2</ele>
        <time>2017-07-08T08:49:41Z</time>
      </trkpt>
      <trkpt lat="59.213741945594" lon="17.921025314379">
        <ele>56.2</ele>
        <time>2017-07-08T08:49:42Z</time>
      </trkpt>
      <trkpt lat="59.213770192597" lon="17.920763547642">
        <ele>56.2</ele>
        <time>2017-07-08T08:49:47Z</time>
      </trkpt>
      <trkpt lat="59.21381687978" lon="17.920504463113">
        <ele>56.2</ele>
        <time>2017-07-08T08:49:52Z</time>
      </trkpt>
      <trkpt lat="59.213829033535" lon="17.920354846198">
        <ele>55.8</ele>
        <time>2017-07-08T08:49:54Z</time>
      </trkpt>
      <trkpt lat="59.213836074331" lon="17.920283683867">
        <ele>55.2</ele>
        <time>2017-07-08T08:49:55Z</time>
      </trkpt>
      <trkpt lat="59.213839846186" lon="17.920199110496">
        <ele>54.8</ele>
        <time>2017-07-08T08:49:56Z</time>
      </trkpt>
      <trkpt lat="59.213842276937" lon="17.920117973704">
        <ele>54.4</ele>
        <time>2017-07-08T08:49:57Z</time>
      </trkpt>
      <trkpt lat="59.213852167579" lon="17.920025186071">
        <ele>54</ele>
        <time>2017-07-08T08:49:58Z</time>
      </trkpt>
      <trkpt lat="59.21384789281" lon="17.91993558356">
        <ele>54</ele>
        <time>2017-07-08T08:49:59Z</time>
      </trkpt>
      <trkpt lat="59.213846132611" lon="17.919847405972">
        <ele>54</ele>
        <time>2017-07-08T08:50:00Z</time>
      </trkpt>
      <trkpt lat="59.21383448177" lon="17.919472567404">
        <ele>53.6</ele>
        <time>2017-07-08T08:50:04Z</time>
      </trkpt>
      <trkpt lat="59.213830207001" lon="17.919373828622">
        <ele>53.2</ele>
        <time>2017-07-08T08:50:05Z</time>
      </trkpt>
      <trkpt lat="59.213821992739" lon="17.919275257478">
        <ele>52.8</ele>
        <time>2017-07-08T08:50:06Z</time>
      </trkpt>
      <trkpt lat="59.213810090441" lon="17.919178781809">
        <ele>52.4</ele>
        <time>2017-07-08T08:50:07Z</time>
      </trkpt>
      <trkpt lat="59.213792320813" lon="17.919075768258">
        <ele>52</ele>
        <time>2017-07-08T08:50:08Z</time>
      </trkpt>
      <trkpt lat="59.213725936165" lon="17.918668324099">
        <ele>51.6</ele>
        <time>2017-07-08T08:50:12Z</time>
      </trkpt>
      <trkpt lat="59.21370959146" lon="17.918569082403">
        <ele>51.2</ele>
        <time>2017-07-08T08:50:13Z</time>
      </trkpt>
      <trkpt lat="59.213687714701" lon="17.918477216779">
        <ele>50.8</ele>
        <time>2017-07-08T08:50:14Z</time>
      </trkpt>
      <trkpt lat="59.21366768196" lon="17.918388368639">
        <ele>50.4</ele>
        <time>2017-07-08T08:50:15Z</time>
      </trkpt>
      <trkpt lat="59.21365678549" lon="17.918295748644">
        <ele>49.8</ele>
        <time>2017-07-08T08:50:16Z</time>
      </trkpt>
      <trkpt lat="59.213663658648" lon="17.918198434785">
        <ele>49.8</ele>
        <time>2017-07-08T08:50:17Z</time>
      </trkpt>
      <trkpt lat="59.213606410271" lon="17.917967597259">
        <ele>49.8</ele>
        <time>2017-07-08T08:50:20Z</time>
      </trkpt>
      <trkpt lat="59.213578163268" lon="17.917898027489">
        <ele>49.8</ele>
        <time>2017-07-08T08:50:21Z</time>
      </trkpt>
      <trkpt lat="59.213543126926" lon="17.917838683637">
        <ele>49.8</ele>
        <time>2017-07-08T08:50:22Z</time>
      </trkpt>
      <trkpt lat="59.213460146116" lon="17.917664759212">
        <ele>49.8</ele>
        <time>2017-07-08T08:50:25Z</time>
      </trkpt>
      <trkpt lat="59.213432485846" lon="17.9176104445">
        <ele>49.8</ele>
        <time>2017-07-08T08:50:26Z</time>
      </trkpt>
      <trkpt lat="59.213268368244" lon="17.917370219246">
        <ele>49.8</ele>
        <time>2017-07-08T08:50:31Z</time>
      </trkpt>
      <trkpt lat="59.213127217048" lon="17.917173998967">
        <ele>49.8</ele>
        <time>2017-07-08T08:50:36Z</time>
      </trkpt>
      <trkpt lat="59.212962009799" lon="17.916953387359">
        <ele>49.8</ele>
        <time>2017-07-08T08:50:42Z</time>
      </trkpt>
      <trkpt lat="59.212801161138" lon="17.916715341399">
        <ele>49.8</ele>
        <time>2017-07-08T08:50:48Z</time>
      </trkpt>
      <trkpt lat="59.212673420982" lon="17.916517193283">
        <ele>49.8</ele>
        <time>2017-07-08T08:50:53Z</time>
      </trkpt>
      <trkpt lat="59.212604605583" lon="17.916344274686">
        <ele>49.8</ele>
        <time>2017-07-08T08:50:57Z</time>
      </trkpt>
      <trkpt lat="59.212596139864" lon="17.916276548934">
        <ele>49.8</ele>
        <time>2017-07-08T08:51:00Z</time>
      </trkpt>
      <trkpt lat="59.212587338869" lon="17.916254001623">
        <ele>49.8</ele>
        <time>2017-07-08T08:51:01Z</time>
      </trkpt>
      <trkpt lat="59.212574849838" lon="17.916236902547">
        <ele>49.8</ele>
        <time>2017-07-08T08:51:04Z</time>
      </trkpt>
      <trkpt lat="59.212567306128" lon="17.916192394658">
        <ele>49.8</ele>
        <time>2017-07-08T08:51:18Z</time>
      </trkpt>
      <trkpt lat="59.212549452681" lon="17.91603129454">
        <ele>49.8</ele>
        <time>2017-07-08T08:51:22Z</time>
      </trkpt>
      <trkpt lat="59.212501172937" lon="17.915904224936">
        <ele>49.8</ele>
        <time>2017-07-08T08:51:26Z</time>
      </trkpt>
      <trkpt lat="59.212428669502" lon="17.915826440904">
        <ele>49.8</ele>
        <time>2017-07-08T08:51:31Z</time>
      </trkpt>
      <trkpt lat="59.212373348962" lon="17.915838594659">
        <ele>49.8</ele>
        <time>2017-07-08T08:51:35Z</time>
      </trkpt>
      <trkpt lat="59.212309981798" lon="17.915871116431">
        <ele>49.8</ele>
        <time>2017-07-08T08:51:38Z</time>
      </trkpt>
      <trkpt lat="59.212258349294" lon="17.915866674024">
        <ele>49.8</ele>
        <time>2017-07-08T08:51:40Z</time>
      </trkpt>
      <trkpt lat="59.212223061495" lon="17.915694509798">
        <ele>49.8</ele>
        <time>2017-07-08T08:51:44Z</time>
      </trkpt>
      <trkpt lat="59.212161370711" lon="17.915533074404">
        <ele>49.8</ele>
        <time>2017-07-08T08:51:49Z</time>
      </trkpt>
      <trkpt lat="59.212157766494" lon="17.915502731926">
        <ele>49.8</ele>
        <time>2017-07-08T08:51:50Z</time>
      </trkpt>
      <trkpt lat="59.212130022405" lon="17.915353031192">
        <ele>49.8</ele>
        <time>2017-07-08T08:51:54Z</time>
      </trkpt>
      <trkpt lat="59.212046287224" lon="17.915209700702">
        <ele>49.8</ele>
        <time>2017-07-08T08:51:59Z</time>
      </trkpt>
      <trkpt lat="59.211962216767" lon="17.915120936381">
        <ele>50.4</ele>
        <time>2017-07-08T08:52:03Z</time>
      </trkpt>
      <trkpt lat="59.211941764931" lon="17.915098556708">
        <ele>50.8</ele>
        <time>2017-07-08T08:52:04Z</time>
      </trkpt>
      <trkpt lat="59.21191837943" lon="17.915079278338">
        <ele>51.2</ele>
        <time>2017-07-08T08:52:05Z</time>
      </trkpt>
      <trkpt lat="59.211899603974" lon="17.915055306104">
        <ele>51.6</ele>
        <time>2017-07-08T08:52:06Z</time>
      </trkpt>
      <trkpt lat="59.211877224301" lon="17.915036949743">
        <ele>52</ele>
        <time>2017-07-08T08:52:07Z</time>
      </trkpt>
      <trkpt lat="59.211785777772" lon="17.914964194851">
        <ele>52</ele>
        <time>2017-07-08T08:52:11Z</time>
      </trkpt>
      <trkpt lat="59.211726350101" lon="17.914883477154">
        <ele>52</ele>
        <time>2017-07-08T08:52:15Z</time>
      </trkpt>
      <trkpt lat="59.211713525794" lon="17.914866713354">
        <ele>52</ele>
        <time>2017-07-08T08:52:16Z</time>
      </trkpt>
      <trkpt lat="59.211666251878" lon="17.914798400869">
        <ele>52</ele>
        <time>2017-07-08T08:52:20Z</time>
      </trkpt>
      <trkpt lat="59.211659294901" lon="17.914801921267">
        <ele>52</ele>
        <time>2017-07-08T08:52:21Z</time>
      </trkpt>
      <trkpt lat="59.21163171845" lon="17.914754479713">
        <ele>54</ele>
        <time>2017-07-08T08:52:44Z</time>
      </trkpt>
      <trkpt lat="59.211594670452" lon="17.914697650431">
        <ele>54</ele>
        <time>2017-07-08T08:52:46Z</time>
      </trkpt>
      <trkpt lat="59.211486124847" lon="17.914538394331">
        <ele>54</ele>
        <time>2017-07-08T08:52:51Z</time>
      </trkpt>
      <trkpt lat="59.211463828993" lon="17.91449656865">
        <ele>54</ele>
        <time>2017-07-08T08:52:52Z</time>
      </trkpt>
      <trkpt lat="59.211313290069" lon="17.914240585424">
        <ele>54</ele>
        <time>2017-07-08T08:52:59Z</time>
      </trkpt>
      <trkpt lat="59.211232907648" lon="17.9140649008">
        <ele>54</ele>
        <time>2017-07-08T08:53:04Z</time>
      </trkpt>
      <trkpt lat="59.211169624303" lon="17.91392157031">
        <ele>54</ele>
        <time>2017-07-08T08:53:09Z</time>
      </trkpt>
      <trkpt lat="59.211153195779" lon="17.913892652755">
        <ele>54.4</ele>
        <time>2017-07-08T08:53:10Z</time>
      </trkpt>
      <trkpt lat="59.211135677608" lon="17.913854012196">
        <ele>54.8</ele>
        <time>2017-07-08T08:53:11Z</time>
      </trkpt>
      <trkpt lat="59.211119081446" lon="17.913825346098">
        <ele>55.2</ele>
        <time>2017-07-08T08:53:12Z</time>
      </trkpt>
      <trkpt lat="59.211101227999" lon="17.913783520417">
        <ele>55.6</ele>
        <time>2017-07-08T08:53:13Z</time>
      </trkpt>
      <trkpt lat="59.211086224398" lon="17.913741443279">
        <ele>56</ele>
        <time>2017-07-08T08:53:14Z</time>
      </trkpt>
      <trkpt lat="59.211068957684" lon="17.913697522123">
        <ele>56</ele>
        <time>2017-07-08T08:53:15Z</time>
      </trkpt>
      <trkpt lat="59.211032077324" lon="17.91357455965">
        <ele>56</ele>
        <time>2017-07-08T08:53:18Z</time>
      </trkpt>
      <trkpt lat="59.21101313423" lon="17.913524854983">
        <ele>56</ele>
        <time>2017-07-08T08:53:19Z</time>
      </trkpt>
      <trkpt lat="59.210958316604" lon="17.91340189251">
        <ele>56</ele>
        <time>2017-07-08T08:53:22Z</time>
      </trkpt>
      <trkpt lat="59.21093266799" lon="17.913307344678">
        <ele>56</ele>
        <time>2017-07-08T08:53:24Z</time>
      </trkpt>
      <trkpt lat="59.210859242546" lon="17.913045997036">
        <ele>56</ele>
        <time>2017-07-08T08:53:31Z</time>
      </trkpt>
      <trkpt lat="59.210777016107" lon="17.91280426304">
        <ele>56</ele>
        <time>2017-07-08T08:53:38Z</time>
      </trkpt>
      <trkpt lat="59.210751032217" lon="17.912745841197">
        <ele>56.4</ele>
        <time>2017-07-08T08:53:40Z</time>
      </trkpt>
      <trkpt lat="59.210751283674" lon="17.912708374104">
        <ele>56.8</ele>
        <time>2017-07-08T08:53:41Z</time>
      </trkpt>
      <trkpt lat="59.210747344181" lon="17.912666296966">
        <ele>57.2</ele>
        <time>2017-07-08T08:53:42Z</time>
      </trkpt>
      <trkpt lat="59.21073653153" lon="17.912632937004">
        <ele>57.6</ele>
        <time>2017-07-08T08:53:43Z</time>
      </trkpt>
      <trkpt lat="59.21072144411" lon="17.912606785476">
        <ele>58</ele>
        <time>2017-07-08T08:53:44Z</time>
      </trkpt>
      <trkpt lat="59.21069546022" lon="17.912526319236">
        <ele>58</ele>
        <time>2017-07-08T08:53:46Z</time>
      </trkpt>
      <trkpt lat="59.210650449417" lon="17.91241115193">
        <ele>58</ele>
        <time>2017-07-08T08:53:49Z</time>
      </trkpt>
      <trkpt lat="59.210527319306" lon="17.912214680194">
        <ele>58</ele>
        <time>2017-07-08T08:53:55Z</time>
      </trkpt>
      <trkpt lat="59.210401423168" lon="17.91197361675">
        <ele>58</ele>
        <time>2017-07-08T08:54:00Z</time>
      </trkpt>
      <trkpt lat="59.210325315516" lon="17.911862891851">
        <ele>58</ele>
        <time>2017-07-08T08:54:02Z</time>
      </trkpt>
      <trkpt lat="59.210232276426" lon="17.9117179688">
        <ele>58</ele>
        <time>2017-07-08T08:54:04Z</time>
      </trkpt>
      <trkpt lat="59.210160359724" lon="17.911505152359">
        <ele>58</ele>
        <time>2017-07-08T08:54:06Z</time>
      </trkpt>
      <trkpt lat="59.210155246765" lon="17.911404401921">
        <ele>57.6</ele>
        <time>2017-07-08T08:54:07Z</time>
      </trkpt>
      <trkpt lat="59.210155582041" lon="17.911338604006">
        <ele>57.2</ele>
        <time>2017-07-08T08:54:08Z</time>
      </trkpt>
      <trkpt lat="59.210161700828" lon="17.911286133312">
        <ele>56.8</ele>
        <time>2017-07-08T08:54:09Z</time>
      </trkpt>
      <trkpt lat="59.210167484339" lon="17.911248498581">
        <ele>56.4</ele>
        <time>2017-07-08T08:54:10Z</time>
      </trkpt>
      <trkpt lat="59.210160778819" lon="17.911215473895">
        <ele>56.4</ele>
        <time>2017-07-08T08:54:11Z</time>
      </trkpt>
      <trkpt lat="59.21016320957" lon="17.911181946295">
        <ele>56.8</ele>
        <time>2017-07-08T08:54:12Z</time>
      </trkpt>
      <trkpt lat="59.210160443543" lon="17.911153950749">
        <ele>57.2</ele>
        <time>2017-07-08T08:54:13Z</time>
      </trkpt>
      <trkpt lat="59.210153402747" lon="17.911131487257">
        <ele>57.6</ele>
        <time>2017-07-08T08:54:14Z</time>
      </trkpt>
      <trkpt lat="59.210151894005" lon="17.911111203059">
        <ele>58</ele>
        <time>2017-07-08T08:54:15Z</time>
      </trkpt>
      <trkpt lat="59.210172178203" lon="17.911007770413">
        <ele>58</ele>
        <time>2017-07-08T08:54:19Z</time>
      </trkpt>
      <trkpt lat="59.210168993081" lon="17.910863015">
        <ele>58</ele>
        <time>2017-07-08T08:54:23Z</time>
      </trkpt>
      <trkpt lat="59.210169328357" lon="17.910818842387">
        <ele>58</ele>
        <time>2017-07-08T08:54:24Z</time>
      </trkpt>
      <trkpt lat="59.210170920918" lon="17.910689761127">
        <ele>58.4</ele>
        <time>2017-07-08T08:54:27Z</time>
      </trkpt>
      <trkpt lat="59.210171256194" lon="17.910646342885">
        <ele>58.8</ele>
        <time>2017-07-08T08:54:28Z</time>
      </trkpt>
      <trkpt lat="59.210171842927" lon="17.910598649874">
        <ele>59.2</ele>
        <time>2017-07-08T08:54:29Z</time>
      </trkpt>
      <trkpt lat="59.210172597298" lon="17.910556321279">
        <ele>59.6</ele>
        <time>2017-07-08T08:54:30Z</time>
      </trkpt>
      <trkpt lat="59.210173100212" lon="17.910508376811">
        <ele>60.2</ele>
        <time>2017-07-08T08:54:31Z</time>
      </trkpt>
      <trkpt lat="59.21020344269" lon="17.910086767241">
        <ele>60.2</ele>
        <time>2017-07-08T08:54:40Z</time>
      </trkpt>
      <trkpt lat="59.210256583936" lon="17.909873364067">
        <ele>60.2</ele>
        <time>2017-07-08T08:54:46Z</time>
      </trkpt>
      <trkpt lat="59.210269072967" lon="17.909861629407">
        <ele>60.2</ele>
        <time>2017-07-08T08:54:47Z</time>
      </trkpt>
      <trkpt lat="59.210334284149" lon="17.909892307161">
        <ele>60.2</ele>
        <time>2017-07-08T08:54:51Z</time>
      </trkpt>
      <trkpt lat="59.210379714047" lon="17.910026417561">
        <ele>60.2</ele>
        <time>2017-07-08T08:54:54Z</time>
      </trkpt>
      <trkpt lat="59.210427323239" lon="17.910069584346">
        <ele>60.2</ele>
        <time>2017-07-08T08:54:56Z</time>
      </trkpt>
      <trkpt lat="59.210537629043" lon="17.910109566009">
        <ele>61</ele>
        <time>2017-07-08T08:55:01Z</time>
      </trkpt>
      <trkpt lat="59.210553638472" lon="17.910117528814">
        <ele>61.4</ele>
        <time>2017-07-08T08:55:02Z</time>
      </trkpt>
      <trkpt lat="59.210576856335" lon="17.910123563782">
        <ele>61.8</ele>
        <time>2017-07-08T08:55:03Z</time>
      </trkpt>
      <trkpt lat="59.210597224352" lon="17.910138232107">
        <ele>62.2</ele>
        <time>2017-07-08T08:55:04Z</time>
      </trkpt>
      <trkpt lat="59.210653131625" lon="17.910176453571">
        <ele>62.2</ele>
        <time>2017-07-08T08:55:07Z</time>
      </trkpt>
      <trkpt lat="59.210775339727" lon="17.910233199034">
        <ele>62.2</ele>
        <time>2017-07-08T08:55:13Z</time>
      </trkpt>
      <trkpt lat="59.210852788483" lon="17.910270749946">
        <ele>62.2</ele>
        <time>2017-07-08T08:55:19Z</time>
      </trkpt>
      <trkpt lat="59.210890842309" lon="17.910296230922">
        <ele>62.2</ele>
        <time>2017-07-08T08:55:22Z</time>
      </trkpt>
      <trkpt lat="59.210919759864" lon="17.910299499863">
        <ele>62.2</ele>
        <time>2017-07-08T08:55:24Z</time>
      </trkpt>
      <trkpt lat="59.211004668511" lon="17.91033411711">
        <ele>62.2</ele>
        <time>2017-07-08T08:55:30Z</time>
      </trkpt>
      <trkpt lat="59.211040626862" lon="17.91035004272">
        <ele>62.2</ele>
        <time>2017-07-08T08:55:32Z</time>
      </trkpt>
      <trkpt lat="59.211148837191" lon="17.910408632201">
        <ele>62.2</ele>
        <time>2017-07-08T08:55:39Z</time>
      </trkpt>
      <trkpt lat="59.211216395305" lon="17.910448530045">
        <ele>62.2</ele>
        <time>2017-07-08T08:55:44Z</time>
      </trkpt>
      <trkpt lat="59.211257131339" lon="17.91046990389">
        <ele>62.2</ele>
        <time>2017-07-08T08:55:47Z</time>
      </trkpt>
      <trkpt lat="59.21127632589" lon="17.910463114551">
        <ele>62.6</ele>
        <time>2017-07-08T08:55:48Z</time>
      </trkpt>
      <trkpt lat="59.211290910396" lon="17.910469233338">
        <ele>63</ele>
        <time>2017-07-08T08:55:49Z</time>
      </trkpt>
      <trkpt lat="59.211299292296" lon="17.910467892234">
        <ele>63.8</ele>
        <time>2017-07-08T08:55:50Z</time>
      </trkpt>
      <trkpt lat="59.211315553182" lon="17.910484236939">
        <ele>64.4</ele>
        <time>2017-07-08T08:55:51Z</time>
      </trkpt>
      <trkpt lat="59.211366682772" lon="17.910479291618">
        <ele>64.4</ele>
        <time>2017-07-08T08:55:54Z</time>
      </trkpt>
      <trkpt lat="59.211407251168" lon="17.910456073755">
        <ele>64.4</ele>
        <time>2017-07-08T08:55:58Z</time>
      </trkpt>
      <trkpt lat="59.211423679692" lon="17.910449200597">
        <ele>64.8</ele>
        <time>2017-07-08T08:56:00Z</time>
      </trkpt>
      <trkpt lat="59.21143977294" lon="17.910443417086">
        <ele>65.2</ele>
        <time>2017-07-08T08:56:01Z</time>
      </trkpt>
      <trkpt lat="59.211448909211" lon="17.910407710192">
        <ele>65.6</ele>
        <time>2017-07-08T08:56:02Z</time>
      </trkpt>
      <trkpt lat="59.211465170097" lon="17.910393460962">
        <ele>66</ele>
        <time>2017-07-08T08:56:03Z</time>
      </trkpt>
      <trkpt lat="59.211480341336" lon="17.910387258356">
        <ele>66.4</ele>
        <time>2017-07-08T08:56:04Z</time>
      </trkpt>
      <trkpt lat="59.211549324373" lon="17.91030058951">
        <ele>66.4</ele>
        <time>2017-07-08T08:56:09Z</time>
      </trkpt>
      <trkpt lat="59.21155963411" lon="17.910277874561">
        <ele>66.4</ele>
        <time>2017-07-08T08:56:10Z</time>
      </trkpt>
      <trkpt lat="59.211628784785" lon="17.910119959565">
        <ele>66.4</ele>
        <time>2017-07-08T08:56:15Z</time>
      </trkpt>
      <trkpt lat="59.211650410087" lon="17.910095652055">
        <ele>66.4</ele>
        <time>2017-07-08T08:56:16Z</time>
      </trkpt>
      <trkpt lat="59.21172475754" lon="17.910000685128">
        <ele>66.4</ele>
        <time>2017-07-08T08:56:19Z</time>
      </trkpt>
      <trkpt lat="59.211760715891" lon="17.910007809743">
        <ele>66.4</ele>
        <time>2017-07-08T08:56:20Z</time>
      </trkpt>
      <trkpt lat="59.21184880966" lon="17.910109146914">
        <ele>66.4</ele>
        <time>2017-07-08T08:56:22Z</time>
      </trkpt>
      <trkpt lat="59.211905052209" lon="17.910170334784">
        <ele>66</ele>
        <time>2017-07-08T08:56:23Z</time>
      </trkpt>
      <trkpt lat="59.211959534559" lon="17.910227499342">
        <ele>65.4</ele>
        <time>2017-07-08T08:56:24Z</time>
      </trkpt>
      <trkpt lat="59.212006557018" lon="17.910286759375">
        <ele>65</ele>
        <time>2017-07-08T08:56:25Z</time>
      </trkpt>
      <trkpt lat="59.21205416621" lon="17.910355155679">
        <ele>64.4</ele>
        <time>2017-07-08T08:56:26Z</time>
      </trkpt>
      <trkpt lat="59.212102362135" lon="17.910430089865">
        <ele>63.6</ele>
        <time>2017-07-08T08:56:27Z</time>
      </trkpt>
      <trkpt lat="59.212163382367" lon="17.910493959943">
        <ele>63</ele>
        <time>2017-07-08T08:56:28Z</time>
      </trkpt>
      <trkpt lat="59.212219205821" lon="17.910559674039">
        <ele>62.2</ele>
        <time>2017-07-08T08:56:29Z</time>
      </trkpt>
      <trkpt lat="59.21226874285" lon="17.910634608225">
        <ele>61.4</ele>
        <time>2017-07-08T08:56:30Z</time>
      </trkpt>
      <trkpt lat="59.212312664006" lon="17.910709458592">
        <ele>60.8</ele>
        <time>2017-07-08T08:56:31Z</time>
      </trkpt>
      <trkpt lat="59.212356082248" lon="17.910767126064">
        <ele>60</ele>
        <time>2017-07-08T08:56:32Z</time>
      </trkpt>
      <trkpt lat="59.212393800798" lon="17.910810711944">
        <ele>59.2</ele>
        <time>2017-07-08T08:56:33Z</time>
      </trkpt>
      <trkpt lat="59.212422383077" lon="17.910839042766">
        <ele>58.4</ele>
        <time>2017-07-08T08:56:34Z</time>
      </trkpt>
      <trkpt lat="59.212441996723" lon="17.91085379491">
        <ele>57.8</ele>
        <time>2017-07-08T08:56:35Z</time>
      </trkpt>
      <trkpt lat="59.212455072487" lon="17.910894530944">
        <ele>57</ele>
        <time>2017-07-08T08:56:36Z</time>
      </trkpt>
      <trkpt lat="59.212478038893" lon="17.910962508153">
        <ele>57</ele>
        <time>2017-07-08T08:56:38Z</time>
      </trkpt>
      <trkpt lat="59.212490695562" lon="17.911005339662">
        <ele>57</ele>
        <time>2017-07-08T08:56:39Z</time>
      </trkpt>
      <trkpt lat="59.212526570094" lon="17.911114052905">
        <ele>56.6</ele>
        <time>2017-07-08T08:56:41Z</time>
      </trkpt>
      <trkpt lat="59.212554984735" lon="17.911171301282">
        <ele>56</ele>
        <time>2017-07-08T08:56:42Z</time>
      </trkpt>
      <trkpt lat="59.212591948914" lon="17.911236763921">
        <ele>55.6</ele>
        <time>2017-07-08T08:56:43Z</time>
      </trkpt>
      <trkpt lat="59.212624889781" lon="17.911301472189">
        <ele>55</ele>
        <time>2017-07-08T08:56:44Z</time>
      </trkpt>
      <trkpt lat="59.212658920295" lon="17.911379759135">
        <ele>54.6</ele>
        <time>2017-07-08T08:56:45Z</time>
      </trkpt>
      <trkpt lat="59.212692112619" lon="17.911462823764">
        <ele>54.2</ele>
        <time>2017-07-08T08:56:46Z</time>
      </trkpt>
      <trkpt lat="59.212728322427" lon="17.9115419489">
        <ele>53.6</ele>
        <time>2017-07-08T08:56:47Z</time>
      </trkpt>
      <trkpt lat="59.212766879167" lon="17.91162325333">
        <ele>53.2</ele>
        <time>2017-07-08T08:56:48Z</time>
      </trkpt>
      <trkpt lat="59.212807112287" lon="17.911699612439">
        <ele>52.8</ele>
        <time>2017-07-08T08:56:49Z</time>
      </trkpt>
      <trkpt lat="59.212849776158" lon="17.911771445322">
        <ele>52.2</ele>
        <time>2017-07-08T08:56:50Z</time>
      </trkpt>
      <trkpt lat="59.212943401981" lon="17.911918799124">
        <ele>51.8</ele>
        <time>2017-07-08T08:56:52Z</time>
      </trkpt>
      <trkpt lat="59.212987993689" lon="17.912003707771">
        <ele>51.4</ele>
        <time>2017-07-08T08:56:53Z</time>
      </trkpt>
      <trkpt lat="59.213026718067" lon="17.912094567567">
        <ele>51</ele>
        <time>2017-07-08T08:56:54Z</time>
      </trkpt>
      <trkpt lat="59.213075249268" lon="17.912180398223">
        <ele>50.6</ele>
        <time>2017-07-08T08:56:55Z</time>
      </trkpt>
      <trkpt lat="59.213120595347" lon="17.912277460625">
        <ele>50.2</ele>
        <time>2017-07-08T08:56:56Z</time>
      </trkpt>
      <trkpt lat="59.213250347159" lon="17.912518943164">
        <ele>50.2</ele>
        <time>2017-07-08T08:56:59Z</time>
      </trkpt>
      <trkpt lat="59.213293430125" lon="17.912582394147">
        <ele>50.2</ele>
        <time>2017-07-08T08:57:00Z</time>
      </trkpt>
      <trkpt lat="59.213362496981" lon="17.912717426556">
        <ele>49.8</ele>
        <time>2017-07-08T08:57:02Z</time>
      </trkpt>
      <trkpt lat="59.213399796436" lon="17.912780206987">
        <ele>49.4</ele>
        <time>2017-07-08T08:57:03Z</time>
      </trkpt>
      <trkpt lat="59.213428630172" lon="17.912855224992">
        <ele>48.6</ele>
        <time>2017-07-08T08:57:04Z</time>
      </trkpt>
      <trkpt lat="59.213452602406" lon="17.912925046219">
        <ele>48.2</ele>
        <time>2017-07-08T08:57:05Z</time>
      </trkpt>
      <trkpt lat="59.213473640975" lon="17.912998639301">
        <ele>48.2</ele>
        <time>2017-07-08T08:57:06Z</time>
      </trkpt>
      <trkpt lat="59.213617222922" lon="17.913468780072">
        <ele>47.6</ele>
        <time>2017-07-08T08:57:12Z</time>
      </trkpt>
      <trkpt lat="59.213633986722" lon="17.913542624611">
        <ele>47.2</ele>
        <time>2017-07-08T08:57:13Z</time>
      </trkpt>
      <trkpt lat="59.213652845997" lon="17.913620743919">
        <ele>46.8</ele>
        <time>2017-07-08T08:57:14Z</time>
      </trkpt>
      <trkpt lat="59.213678159335" lon="17.913690816603">
        <ele>46.4</ele>
        <time>2017-07-08T08:57:15Z</time>
      </trkpt>
      <trkpt lat="59.21370540051" lon="17.913753345577">
        <ele>46</ele>
        <time>2017-07-08T08:57:16Z</time>
      </trkpt>
      <trkpt lat="59.213827021879" lon="17.914010921364">
        <ele>46</ele>
        <time>2017-07-08T08:57:20Z</time>
      </trkpt>
      <trkpt lat="59.213892819794" lon="17.914264054744">
        <ele>45.4</ele>
        <time>2017-07-08T08:57:23Z</time>
      </trkpt>
      <trkpt lat="59.213920312426" lon="17.914334714161">
        <ele>45</ele>
        <time>2017-07-08T08:57:24Z</time>
      </trkpt>
      <trkpt lat="59.21394260828" lon="17.91438676576">
        <ele>44.6</ele>
        <time>2017-07-08T08:57:25Z</time>
      </trkpt>
      <trkpt lat="59.213957779519" lon="17.914435799875">
        <ele>44.2</ele>
        <time>2017-07-08T08:57:26Z</time>
      </trkpt>
      <trkpt lat="59.213971274378" lon="17.914488689664">
        <ele>43.6</ele>
        <time>2017-07-08T08:57:27Z</time>
      </trkpt>
      <trkpt lat="59.213983511952" lon="17.914541914729">
        <ele>43.6</ele>
        <time>2017-07-08T08:57:28Z</time>
      </trkpt>
      <trkpt lat="59.213999269924" lon="17.914642581348">
        <ele>43.6</ele>
        <time>2017-07-08T08:57:30Z</time>
      </trkpt>
      <trkpt lat="59.214022990701" lon="17.914757748654">
        <ele>43.2</ele>
        <time>2017-07-08T08:57:33Z</time>
      </trkpt>
      <trkpt lat="59.214034222447" lon="17.914801837448">
        <ele>42.8</ele>
        <time>2017-07-08T08:57:34Z</time>
      </trkpt>
      <trkpt lat="59.214047046754" lon="17.914845842423">
        <ele>42.4</ele>
        <time>2017-07-08T08:57:35Z</time>
      </trkpt>
      <trkpt lat="59.214051237704" lon="17.914894205986">
        <ele>42</ele>
        <time>2017-07-08T08:57:36Z</time>
      </trkpt>
      <trkpt lat="59.214065067839" lon="17.914935109658">
        <ele>41.4</ele>
        <time>2017-07-08T08:57:37Z</time>
      </trkpt>
      <trkpt lat="59.214087196055" lon="17.915006355808">
        <ele>41.4</ele>
        <time>2017-07-08T08:57:39Z</time>
      </trkpt>
      <trkpt lat="59.214087363693" lon="17.915041559788">
        <ele>41.4</ele>
        <time>2017-07-08T08:57:40Z</time>
      </trkpt>
      <trkpt lat="59.214100188" lon="17.915141639674">
        <ele>41.4</ele>
        <time>2017-07-08T08:57:44Z</time>
      </trkpt>
      <trkpt lat="59.214099265991" lon="17.915146752633">
        <ele>41.4</ele>
        <time>2017-07-08T08:57:46Z</time>
      </trkpt>
      <trkpt lat="59.214105636235" lon="17.915174329084">
        <ele>41.4</ele>
        <time>2017-07-08T08:58:31Z</time>
      </trkpt>
      <trkpt lat="59.214110749194" lon="17.915214729842">
        <ele>41.4</ele>
        <time>2017-07-08T08:58:32Z</time>
      </trkpt>
      <trkpt lat="59.214151485228" lon="17.915347582957">
        <ele>41.4</ele>
        <time>2017-07-08T08:58:35Z</time>
      </trkpt>
      <trkpt lat="59.214175457462" lon="17.915341799446">
        <ele>41.4</ele>
        <time>2017-07-08T08:58:36Z</time>
      </trkpt>
      <trkpt lat="59.214244021404" lon="17.915314306814">
        <ele>41.4</ele>
        <time>2017-07-08T08:58:39Z</time>
      </trkpt>
      <trkpt lat="59.214277716642" lon="17.915275917712">
        <ele>41.4</ele>
        <time>2017-07-08T08:58:41Z</time>
      </trkpt>
      <trkpt lat="59.214406546445" lon="17.915192182531">
        <ele>41.4</ele>
        <time>2017-07-08T08:58:47Z</time>
      </trkpt>
      <trkpt lat="59.214518277172" lon="17.915097215604">
        <ele>41</ele>
        <time>2017-07-08T08:58:51Z</time>
      </trkpt>
      <trkpt lat="59.214549122564" lon="17.915077601958">
        <ele>40.6</ele>
        <time>2017-07-08T08:58:52Z</time>
      </trkpt>
      <trkpt lat="59.214578626852" lon="17.91504893586">
        <ele>40.2</ele>
        <time>2017-07-08T08:58:53Z</time>
      </trkpt>
      <trkpt lat="59.214608550235" lon="17.915023622522">
        <ele>39.8</ele>
        <time>2017-07-08T08:58:54Z</time>
      </trkpt>
      <trkpt lat="59.214638808894" lon="17.915004679428">
        <ele>39.4</ele>
        <time>2017-07-08T08:58:55Z</time>
      </trkpt>
      <trkpt lat="59.214755233485" lon="17.914935528753">
        <ele>39.4</ele>
        <time>2017-07-08T08:58:59Z</time>
      </trkpt>
      <trkpt lat="59.214899737441" lon="17.914797730317">
        <ele>39.4</ele>
        <time>2017-07-08T08:59:05Z</time>
      </trkpt>
      <trkpt lat="59.21503560804" lon="17.914684155572">
        <ele>39.4</ele>
        <time>2017-07-08T08:59:10Z</time>
      </trkpt>
      <trkpt lat="59.21514373455" lon="17.914514589735">
        <ele>39.4</ele>
        <time>2017-07-08T08:59:15Z</time>
      </trkpt>
      <trkpt lat="59.215196708158" lon="17.914444768508">
        <ele>39.4</ele>
        <time>2017-07-08T08:59:19Z</time>
      </trkpt>
      <trkpt lat="59.215279437511" lon="17.914268078056">
        <ele>39</ele>
        <time>2017-07-08T08:59:24Z</time>
      </trkpt>
      <trkpt lat="59.215293519103" lon="17.914206303453">
        <ele>38.6</ele>
        <time>2017-07-08T08:59:25Z</time>
      </trkpt>
      <trkpt lat="59.215298715881" lon="17.914141511366">
        <ele>38.2</ele>
        <time>2017-07-08T08:59:26Z</time>
      </trkpt>
      <trkpt lat="59.215308271247" lon="17.914081580781">
        <ele>37.8</ele>
        <time>2017-07-08T08:59:27Z</time>
      </trkpt>
      <trkpt lat="59.215319838269" lon="17.914025589689">
        <ele>37.4</ele>
        <time>2017-07-08T08:59:28Z</time>
      </trkpt>
      <trkpt lat="59.215335596241" lon="17.913915786799">
        <ele>37.4</ele>
        <time>2017-07-08T08:59:30Z</time>
      </trkpt>
      <trkpt lat="59.215393263713" lon="17.913695761924">
        <ele>37.4</ele>
        <time>2017-07-08T08:59:35Z</time>
      </trkpt>
      <trkpt lat="59.215488901192" lon="17.913416225559">
        <ele>37.4</ele>
        <time>2017-07-08T08:59:42Z</time>
      </trkpt>
      <trkpt lat="59.215542377714" lon="17.913099222101">
        <ele>37.4</ele>
        <time>2017-07-08T08:59:49Z</time>
      </trkpt>
      <trkpt lat="59.215554782926" lon="17.912746092654">
        <ele>37.4</ele>
        <time>2017-07-08T08:59:56Z</time>
      </trkpt>
      <trkpt lat="59.215586131232" lon="17.912418025088">
        <ele>37.4</ele>
        <time>2017-07-08T09:00:03Z</time>
      </trkpt>
      <trkpt lat="59.215616557529" lon="17.912115103222">
        <ele>37.4</ele>
        <time>2017-07-08T09:00:09Z</time>
      </trkpt>
      <trkpt lat="59.215657628839" lon="17.911654014903">
        <ele>37.4</ele>
        <time>2017-07-08T09:00:16Z</time>
      </trkpt>
      <trkpt lat="59.215697107588" lon="17.911191753118">
        <ele>37.4</ele>
        <time>2017-07-08T09:00:23Z</time>
      </trkpt>
      <trkpt lat="59.21573382031" lon="17.910677439734">
        <ele>37.4</ele>
        <time>2017-07-08T09:00:31Z</time>
      </trkpt>
      <trkpt lat="59.215759049829" lon="17.91030478046">
        <ele>37.4</ele>
        <time>2017-07-08T09:00:37Z</time>
      </trkpt>
      <trkpt lat="59.215797103655" lon="17.909856432629">
        <ele>37.4</ele>
        <time>2017-07-08T09:00:44Z</time>
      </trkpt>
      <trkpt lat="59.215832307635" lon="17.909482767527">
        <ele>37.4</ele>
        <time>2017-07-08T09:00:50Z</time>
      </trkpt>
      <trkpt lat="59.215873462764" lon="17.909078005576">
        <ele>37.4</ele>
        <time>2017-07-08T09:00:57Z</time>
      </trkpt>
      <trkpt lat="59.215880671198" lon="17.908798972125">
        <ele>37.4</ele>
        <time>2017-07-08T09:01:02Z</time>
      </trkpt>
      <trkpt lat="59.215859381172" lon="17.908523291434">
        <ele>37.4</ele>
        <time>2017-07-08T09:01:08Z</time>
      </trkpt>
      <trkpt lat="59.215860554638" lon="17.908188685986">
        <ele>37.4</ele>
        <time>2017-07-08T09:01:14Z</time>
      </trkpt>
      <trkpt lat="59.215852759471" lon="17.907806471346">
        <ele>37.4</ele>
        <time>2017-07-08T09:01:21Z</time>
      </trkpt>
      <trkpt lat="59.215859716448" lon="17.907745115838">
        <ele>37.8</ele>
        <time>2017-07-08T09:01:22Z</time>
      </trkpt>
      <trkpt lat="59.215864410312" lon="17.907695662628">
        <ele>38.2</ele>
        <time>2017-07-08T09:01:23Z</time>
      </trkpt>
      <trkpt lat="59.215874720049" lon="17.907636570233">
        <ele>38.6</ele>
        <time>2017-07-08T09:01:24Z</time>
      </trkpt>
      <trkpt lat="59.215884862148" lon="17.907580495322">
        <ele>39</ele>
        <time>2017-07-08T09:01:25Z</time>
      </trkpt>
      <trkpt lat="59.215893746962" lon="17.907520061823">
        <ele>39.4</ele>
        <time>2017-07-08T09:01:26Z</time>
      </trkpt>
      <trkpt lat="59.215999694178" lon="17.907155532992">
        <ele>39.4</ele>
        <time>2017-07-08T09:01:32Z</time>
      </trkpt>
      <trkpt lat="59.216176049354" lon="17.906892592789">
        <ele>39.4</ele>
        <time>2017-07-08T09:01:37Z</time>
      </trkpt>
      <trkpt lat="59.216209828411" lon="17.906842301389">
        <ele>39.4</ele>
        <time>2017-07-08T09:01:38Z</time>
      </trkpt>
      <trkpt lat="59.216241511993" lon="17.906792931998">
        <ele>39</ele>
        <time>2017-07-08T09:01:39Z</time>
      </trkpt>
      <trkpt lat="59.216266741512" lon="17.906743897883">
        <ele>38.4</ele>
        <time>2017-07-08T09:01:40Z</time>
      </trkpt>
      <trkpt lat="59.216289288823" lon="17.906694779949">
        <ele>38</ele>
        <time>2017-07-08T09:01:41Z</time>
      </trkpt>
      <trkpt lat="59.216314350704" lon="17.906652702811">
        <ele>37.4</ele>
        <time>2017-07-08T09:01:42Z</time>
      </trkpt>
      <trkpt lat="59.216338490576" lon="17.90660668618">
        <ele>37</ele>
        <time>2017-07-08T09:01:43Z</time>
      </trkpt>
      <trkpt lat="59.216351817797" lon="17.906561507739">
        <ele>37</ele>
        <time>2017-07-08T09:01:44Z</time>
      </trkpt>
      <trkpt lat="59.216412586572" lon="17.906481125318">
        <ele>37</ele>
        <time>2017-07-08T09:01:48Z</time>
      </trkpt>
      <trkpt lat="59.216426500526" lon="17.906446256614">
        <ele>37</ele>
        <time>2017-07-08T09:01:50Z</time>
      </trkpt>
      <trkpt lat="59.21645801647" lon="17.906397054861">
        <ele>37</ele>
        <time>2017-07-08T09:01:52Z</time>
      </trkpt>
      <trkpt lat="59.216529346439" lon="17.906102766352">
        <ele>36.6</ele>
        <time>2017-07-08T09:01:58Z</time>
      </trkpt>
      <trkpt lat="59.216540829642" lon="17.906042416672">
        <ele>36.2</ele>
        <time>2017-07-08T09:01:59Z</time>
      </trkpt>
      <trkpt lat="59.216554324501" lon="17.905985252114">
        <ele>35.8</ele>
        <time>2017-07-08T09:02:00Z</time>
      </trkpt>
      <trkpt lat="59.21657033393" lon="17.905921633493">
        <ele>35</ele>
        <time>2017-07-08T09:02:01Z</time>
      </trkpt>
      <trkpt lat="59.216598161838" lon="17.9057584379">
        <ele>35</ele>
        <time>2017-07-08T09:02:04Z</time>
      </trkpt>
      <trkpt lat="59.216657338052" lon="17.905428274859">
        <ele>35</ele>
        <time>2017-07-08T09:02:09Z</time>
      </trkpt>
      <trkpt lat="59.216672676929" lon="17.90526725856">
        <ele>35</ele>
        <time>2017-07-08T09:02:11Z</time>
      </trkpt>
      <trkpt lat="59.216707294176" lon="17.905053017196">
        <ele>35</ele>
        <time>2017-07-08T09:02:14Z</time>
      </trkpt>
      <trkpt lat="59.216722549234" lon="17.904922678651">
        <ele>34.6</ele>
        <time>2017-07-08T09:02:17Z</time>
      </trkpt>
      <trkpt lat="59.216727578374" lon="17.904904657566">
        <ele>34</ele>
        <time>2017-07-08T09:02:18Z</time>
      </trkpt>
      <trkpt lat="59.216731098772" lon="17.904887977585">
        <ele>33.6</ele>
        <time>2017-07-08T09:02:19Z</time>
      </trkpt>
      <trkpt lat="59.216737049921" lon="17.904870124138">
        <ele>33.2</ele>
        <time>2017-07-08T09:02:20Z</time>
      </trkpt>
      <trkpt lat="59.216739983586" lon="17.9048448108">
        <ele>32.8</ele>
        <time>2017-07-08T09:02:21Z</time>
      </trkpt>
      <trkpt lat="59.216759513413" lon="17.904700558301">
        <ele>32.8</ele>
        <time>2017-07-08T09:02:24Z</time>
      </trkpt>
      <trkpt lat="59.216803266931" lon="17.904358492962">
        <ele>32.8</ele>
        <time>2017-07-08T09:02:30Z</time>
      </trkpt>
      <trkpt lat="59.216865879724" lon="17.903918443212">
        <ele>32.8</ele>
        <time>2017-07-08T09:02:37Z</time>
      </trkpt>
      <trkpt lat="59.216882894981" lon="17.903896147358">
        <ele>32.8</ele>
        <time>2017-07-08T09:02:38Z</time>
      </trkpt>
      <trkpt lat="59.216907705405" lon="17.90376941303">
        <ele>32.8</ele>
        <time>2017-07-08T09:02:40Z</time>
      </trkpt>
      <trkpt lat="59.217008623481" lon="17.903397172851">
        <ele>32.8</ele>
        <time>2017-07-08T09:02:47Z</time>
      </trkpt>
      <trkpt lat="59.21712018657" lon="17.903246717746">
        <ele>32.8</ele>
        <time>2017-07-08T09:02:52Z</time>
      </trkpt>
      <trkpt lat="59.217214818221" lon="17.903276808767">
        <ele>32.4</ele>
        <time>2017-07-08T09:02:55Z</time>
      </trkpt>
      <trkpt lat="59.217248932554" lon="17.903273623645">
        <ele>32</ele>
        <time>2017-07-08T09:02:56Z</time>
      </trkpt>
      <trkpt lat="59.217275419358" lon="17.903283849563">
        <ele>31.6</ele>
        <time>2017-07-08T09:02:57Z</time>
      </trkpt>
      <trkpt lat="59.217300565058" lon="17.90330170301">
        <ele>31.2</ele>
        <time>2017-07-08T09:02:58Z</time>
      </trkpt>
      <trkpt lat="59.217318334686" lon="17.90333523061">
        <ele>30.8</ele>
        <time>2017-07-08T09:02:59Z</time>
      </trkpt>
      <trkpt lat="59.217379271099" lon="17.903424330207">
        <ele>30.8</ele>
        <time>2017-07-08T09:03:02Z</time>
      </trkpt>
      <trkpt lat="59.217501730658" lon="17.903707806065">
        <ele>30.8</ele>
        <time>2017-07-08T09:03:10Z</time>
      </trkpt>
      <trkpt lat="59.217578592681" lon="17.903895476806">
        <ele>30.8</ele>
        <time>2017-07-08T09:03:15Z</time>
      </trkpt>
      <trkpt lat="59.217631398651" lon="17.904045345178">
        <ele>30.8</ele>
        <time>2017-07-08T09:03:19Z</time>
      </trkpt>
      <trkpt lat="59.217629219357" lon="17.90406948505">
        <ele>30.8</ele>
        <time>2017-07-08T09:03:20Z</time>
      </trkpt>
      <trkpt lat="59.217608935159" lon="17.904057163657">
        <ele>30.8</ele>
        <time>2017-07-08T09:03:21Z</time>
      </trkpt>
      <trkpt lat="59.217586639305" lon="17.903967393508">
        <ele>30.8</ele>
        <time>2017-07-08T09:03:23Z</time>
      </trkpt>
      <trkpt lat="59.217549675126" lon="17.903872761857">
        <ele>30.8</ele>
        <time>2017-07-08T09:03:25Z</time>
      </trkpt>
      <trkpt lat="59.217483877211" lon="17.903675703388">
        <ele>30.8</ele>
        <time>2017-07-08T09:03:29Z</time>
      </trkpt>
      <trkpt lat="59.217398717107" lon="17.903439669084">
        <ele>30.8</ele>
        <time>2017-07-08T09:03:35Z</time>
      </trkpt>
      <trkpt lat="59.217389161741" lon="17.903399687421">
        <ele>30.8</ele>
        <time>2017-07-08T09:03:36Z</time>
      </trkpt>
      <trkpt lat="59.217389497017" lon="17.903331542574">
        <ele>30.8</ele>
        <time>2017-07-08T09:03:38Z</time>
      </trkpt>
      <trkpt lat="59.217387150085" lon="17.903324753235">
        <ele>30.8</ele>
        <time>2017-07-08T09:03:39Z</time>
      </trkpt>
      <trkpt lat="59.21738505461" lon="17.903327100167">
        <ele>30.8</ele>
        <time>2017-07-08T09:03:40Z</time>
      </trkpt>
      <trkpt lat="59.217387066266" lon="17.903322741579">
        <ele>30.8</ele>
        <time>2017-07-08T09:03:43Z</time>
      </trkpt>
      <trkpt lat="59.217401650772" lon="17.903289046341">
        <ele>30.8</ele>
        <time>2017-07-08T09:03:45Z</time>
      </trkpt>
      <trkpt lat="59.217424114264" lon="17.903278485147">
        <ele>30.8</ele>
        <time>2017-07-08T09:03:46Z</time>
      </trkpt>
      <trkpt lat="59.217467616325" lon="17.903281251174">
        <ele>30.8</ele>
        <time>2017-07-08T09:03:48Z</time>
      </trkpt>
      <trkpt lat="59.217531067308" lon="17.903477219996">
        <ele>30.8</ele>
        <time>2017-07-08T09:03:52Z</time>
      </trkpt>
      <trkpt lat="59.217571551885" lon="17.903576126416">
        <ele>30.8</ele>
        <time>2017-07-08T09:03:54Z</time>
      </trkpt>
      <trkpt lat="59.217654197419" lon="17.903770167401">
        <ele>30.8</ele>
        <time>2017-07-08T09:03:57Z</time>
      </trkpt>
      <trkpt lat="59.217828960034" lon="17.904212228807">
        <ele>30.8</ele>
        <time>2017-07-08T09:04:03Z</time>
      </trkpt>
      <trkpt lat="59.217887214239" lon="17.904347512673">
        <ele>30.8</ele>
        <time>2017-07-08T09:04:05Z</time>
      </trkpt>
      <trkpt lat="59.217991149799" lon="17.904599137311">
        <ele>30.8</ele>
        <time>2017-07-08T09:04:09Z</time>
      </trkpt>
      <trkpt lat="59.218014116205" lon="17.904666611606">
        <ele>30.8</ele>
        <time>2017-07-08T09:04:10Z</time>
      </trkpt>
      <trkpt lat="59.218088547477" lon="17.904862077514">
        <ele>30.8</ele>
        <time>2017-07-08T09:04:13Z</time>
      </trkpt>
      <trkpt lat="59.21826515411" lon="17.90531168263">
        <ele>30.8</ele>
        <time>2017-07-08T09:04:20Z</time>
      </trkpt>
      <trkpt lat="59.218456009973" lon="17.90580118559">
        <ele>30.8</ele>
        <time>2017-07-08T09:04:28Z</time>
      </trkpt>
      <trkpt lat="59.218469169556" lon="17.905834377914">
        <ele>30.8</ele>
        <time>2017-07-08T09:04:29Z</time>
      </trkpt>
      <trkpt lat="59.218490794858" lon="17.905874024301">
        <ele>30.8</ele>
        <time>2017-07-08T09:04:31Z</time>
      </trkpt>
      <trkpt lat="59.218522394621" lon="17.905974439463">
        <ele>30.8</ele>
        <time>2017-07-08T09:04:34Z</time>
      </trkpt>
      <trkpt lat="59.218557095687" lon="17.906065466897">
        <ele>30.8</ele>
        <time>2017-07-08T09:04:36Z</time>
      </trkpt>
      <trkpt lat="59.21866748531" lon="17.906312649128">
        <ele>30.8</ele>
        <time>2017-07-08T09:04:42Z</time>
      </trkpt>
      <trkpt lat="59.218753567423" lon="17.906530829985">
        <ele>30.8</ele>
        <time>2017-07-08T09:04:48Z</time>
      </trkpt>
      <trkpt lat="59.218833530749" lon="17.906696959243">
        <ele>30.8</ele>
        <time>2017-07-08T09:04:53Z</time>
      </trkpt>
      <trkpt lat="59.218909889858" lon="17.906956714324">
        <ele>30.8</ele>
        <time>2017-07-08T09:04:59Z</time>
      </trkpt>
      <trkpt lat="59.218971496823" lon="17.907114713139">
        <ele>30.8</ele>
        <time>2017-07-08T09:05:03Z</time>
      </trkpt>
      <trkpt lat="59.219045592819" lon="17.907228371703">
        <ele>30.8</ele>
        <time>2017-07-08T09:05:07Z</time>
      </trkpt>
      <trkpt lat="59.219137458443" lon="17.907147737825">
        <ele>30.8</ele>
        <time>2017-07-08T09:05:12Z</time>
      </trkpt>
      <trkpt lat="59.219140643565" lon="17.907159975399">
        <ele>30.8</ele>
        <time>2017-07-08T09:05:13Z</time>
      </trkpt>
      <trkpt lat="59.219140978841" lon="17.907160981227">
        <ele>30.8</ele>
        <time>2017-07-08T09:05:17Z</time>
      </trkpt>
      <trkpt lat="59.219160927763" lon="17.90721269755">
        <ele>30.8</ele>
        <time>2017-07-08T09:05:18Z</time>
      </trkpt>
      <trkpt lat="59.219185402911" lon="17.907237675612">
        <ele>30.8</ele>
        <time>2017-07-08T09:05:19Z</time>
      </trkpt>
      <trkpt lat="59.219221193624" lon="17.907206411125">
        <ele>30.8</ele>
        <time>2017-07-08T09:05:21Z</time>
      </trkpt>
      <trkpt lat="59.21931205342" lon="17.907057380943">
        <ele>30.8</ele>
        <time>2017-07-08T09:05:26Z</time>
      </trkpt>
      <trkpt lat="59.219371816367" lon="17.906953948297">
        <ele>30.8</ele>
        <time>2017-07-08T09:05:29Z</time>
      </trkpt>
      <trkpt lat="59.219412217125" lon="17.906883372699">
        <ele>30.8</ele>
        <time>2017-07-08T09:05:31Z</time>
      </trkpt>
      <trkpt lat="59.219461670335" lon="17.906851186203">
        <ele>31.2</ele>
        <time>2017-07-08T09:05:33Z</time>
      </trkpt>
      <trkpt lat="59.219483379456" lon="17.906844564502">
        <ele>31.6</ele>
        <time>2017-07-08T09:05:34Z</time>
      </trkpt>
      <trkpt lat="59.219506262043" lon="17.906842888122">
        <ele>32.2</ele>
        <time>2017-07-08T09:05:35Z</time>
      </trkpt>
      <trkpt lat="59.219526881517" lon="17.906848587814">
        <ele>32.6</ele>
        <time>2017-07-08T09:05:36Z</time>
      </trkpt>
      <trkpt lat="59.219548925914" lon="17.906848420176">
        <ele>33</ele>
        <time>2017-07-08T09:05:37Z</time>
      </trkpt>
      <trkpt lat="59.219605755196" lon="17.906889407667">
        <ele>33</ele>
        <time>2017-07-08T09:05:40Z</time>
      </trkpt>
      <trkpt lat="59.219632158181" lon="17.906952607193">
        <ele>33</ele>
        <time>2017-07-08T09:05:42Z</time>
      </trkpt>
      <trkpt lat="59.219694770974" lon="17.907078419512">
        <ele>33</ele>
        <time>2017-07-08T09:05:46Z</time>
      </trkpt>
      <trkpt lat="59.219720335769" lon="17.907087052869">
        <ele>33</ele>
        <time>2017-07-08T09:05:47Z</time>
      </trkpt>
      <trkpt lat="59.219786049865" lon="17.907029385397">
        <ele>33</ele>
        <time>2017-07-08T09:05:51Z</time>
      </trkpt>
      <trkpt lat="59.219777332689" lon="17.906983704042">
        <ele>33</ele>
        <time>2017-07-08T09:06:17Z</time>
      </trkpt>
      <trkpt lat="59.219754282464" lon="17.907011699588">
        <ele>33</ele>
        <time>2017-07-08T09:06:19Z</time>
      </trkpt>
      <trkpt lat="59.219735590827" lon="17.907062410083">
        <ele>33</ele>
        <time>2017-07-08T09:06:21Z</time>
      </trkpt>
      <trkpt lat="59.219741458157" lon="17.907134662061">
        <ele>33</ele>
        <time>2017-07-08T09:06:23Z</time>
      </trkpt>
      <trkpt lat="59.219807758986" lon="17.907278327827">
        <ele>33</ele>
        <time>2017-07-08T09:06:27Z</time>
      </trkpt>
      <trkpt lat="59.219841286586" lon="17.907370864003">
        <ele>33</ele>
        <time>2017-07-08T09:06:29Z</time>
      </trkpt>
      <trkpt lat="59.219900881895" lon="17.907529784827">
        <ele>33</ele>
        <time>2017-07-08T09:06:32Z</time>
      </trkpt>
      <trkpt lat="59.220006745292" lon="17.907766992597">
        <ele>33</ele>
        <time>2017-07-08T09:06:37Z</time>
      </trkpt>
      <trkpt lat="59.220040943444" lon="17.907870509062">
        <ele>33</ele>
        <time>2017-07-08T09:06:39Z</time>
      </trkpt>
      <trkpt lat="59.220062065832" lon="17.907910239268">
        <ele>33</ele>
        <time>2017-07-08T09:06:40Z</time>
      </trkpt>
      <trkpt lat="59.220097856545" lon="17.908035381035">
        <ele>33</ele>
        <time>2017-07-08T09:06:43Z</time>
      </trkpt>
      <trkpt lat="59.220125432996" lon="17.908078883096">
        <ele>33</ele>
        <time>2017-07-08T09:06:46Z</time>
      </trkpt>
      <trkpt lat="59.220108501558" lon="17.907971008043">
        <ele>33</ele>
        <time>2017-07-08T09:06:49Z</time>
      </trkpt>
      <trkpt lat="59.220029879336" lon="17.907787947347">
        <ele>33</ele>
        <time>2017-07-08T09:06:53Z</time>
      </trkpt>
      <trkpt lat="59.219990819682" lon="17.907688621832">
        <ele>33</ele>
        <time>2017-07-08T09:06:55Z</time>
      </trkpt>
      <trkpt lat="59.219881603525" lon="17.907387124889">
        <ele>33</ele>
        <time>2017-07-08T09:07:01Z</time>
      </trkpt>
      <trkpt lat="59.219797952163" lon="17.907168692575">
        <ele>33</ele>
        <time>2017-07-08T09:07:07Z</time>
      </trkpt>
      <trkpt lat="59.219749001867" lon="17.907025362085">
        <ele>33</ele>
        <time>2017-07-08T09:07:12Z</time>
      </trkpt>
      <trkpt lat="59.219735171732" lon="17.907069786155">
        <ele>33</ele>
        <time>2017-07-08T09:07:14Z</time>
      </trkpt>
      <trkpt lat="59.219788480616" lon="17.907162322331">
        <ele>33</ele>
        <time>2017-07-08T09:07:17Z</time>
      </trkpt>
      <trkpt lat="59.219893254366" lon="17.907379078265">
        <ele>33</ele>
        <time>2017-07-08T09:07:22Z</time>
      </trkpt>
      <trkpt lat="59.219970786941" lon="17.907559959667">
        <ele>33</ele>
        <time>2017-07-08T09:07:25Z</time>
      </trkpt>
      <trkpt lat="59.21999182551" lon="17.907629529437">
        <ele>33</ele>
        <time>2017-07-08T09:07:26Z</time>
      </trkpt>
      <trkpt lat="59.220040859625" lon="17.907754419747">
        <ele>33</ele>
        <time>2017-07-08T09:07:28Z</time>
      </trkpt>
      <trkpt lat="59.220109507386" lon="17.907908730526">
        <ele>33</ele>
        <time>2017-07-08T09:07:31Z</time>
      </trkpt>
      <trkpt lat="59.220131216507" lon="17.907954076605">
        <ele>33</ele>
        <time>2017-07-08T09:07:32Z</time>
      </trkpt>
      <trkpt lat="59.220234649153" lon="17.908150464522">
        <ele>33</ele>
        <time>2017-07-08T09:07:36Z</time>
      </trkpt>
      <trkpt lat="59.220370603571" lon="17.908462857935">
        <ele>33</ele>
        <time>2017-07-08T09:07:42Z</time>
      </trkpt>
      <trkpt lat="59.220458781159" lon="17.908668214485">
        <ele>33</ele>
        <time>2017-07-08T09:07:47Z</time>
      </trkpt>
      <trkpt lat="59.220385020439" lon="17.908782124506">
        <ele>33</ele>
        <time>2017-07-08T09:07:51Z</time>
      </trkpt>
      <trkpt lat="59.220227524538" lon="17.90898966035">
        <ele>33</ele>
        <time>2017-07-08T09:07:57Z</time>
      </trkpt>
      <trkpt lat="59.220074219587" lon="17.909227119577">
        <ele>33</ele>
        <time>2017-07-08T09:08:03Z</time>
      </trkpt>
      <trkpt lat="59.219966009258" lon="17.90939953526">
        <ele>33</ele>
        <time>2017-07-08T09:08:08Z</time>
      </trkpt>
      <trkpt lat="59.219929212717" lon="17.909497519671">
        <ele>33</ele>
        <time>2017-07-08T09:08:10Z</time>
      </trkpt>
      <trkpt lat="59.219941701748" lon="17.909614698633">
        <ele>33</ele>
        <time>2017-07-08T09:08:12Z</time>
      </trkpt>
      <trkpt lat="59.220050414991" lon="17.909866742366">
        <ele>33</ele>
        <time>2017-07-08T09:08:18Z</time>
      </trkpt>
      <trkpt lat="59.220177149319" lon="17.910220710003">
        <ele>33</ele>
        <time>2017-07-08T09:08:25Z</time>
      </trkpt>
      <trkpt lat="59.220316121221" lon="17.910570654328">
        <ele>33</ele>
        <time>2017-07-08T09:08:32Z</time>
      </trkpt>
      <trkpt lat="59.220451237449" lon="17.910909031631">
        <ele>33</ele>
        <time>2017-07-08T09:08:39Z</time>
      </trkpt>
      <trkpt lat="59.220542348702" lon="17.911146826134">
        <ele>33</ele>
        <time>2017-07-08T09:08:45Z</time>
      </trkpt>
      <trkpt lat="59.220627508806" lon="17.91140532393">
        <ele>33</ele>
        <time>2017-07-08T09:08:51Z</time>
      </trkpt>
      <trkpt lat="59.220705628114" lon="17.911559802347">
        <ele>33</ele>
        <time>2017-07-08T09:08:56Z</time>
      </trkpt>
      <trkpt lat="59.220792380779" lon="17.911792232434">
        <ele>33</ele>
        <time>2017-07-08T09:09:02Z</time>
      </trkpt>
      <trkpt lat="59.22086354311" lon="17.911971856551">
        <ele>33</ele>
        <time>2017-07-08T09:09:07Z</time>
      </trkpt>
      <trkpt lat="59.220891371018" lon="17.912055172637">
        <ele>33.4</ele>
        <time>2017-07-08T09:09:09Z</time>
      </trkpt>
      <trkpt lat="59.220909140646" lon="17.912093729377">
        <ele>33.8</ele>
        <time>2017-07-08T09:09:10Z</time>
      </trkpt>
      <trkpt lat="59.220925904446" lon="17.912135219782">
        <ele>34.2</ele>
        <time>2017-07-08T09:09:11Z</time>
      </trkpt>
      <trkpt lat="59.220941410961" lon="17.912173525065">
        <ele>34.6</ele>
        <time>2017-07-08T09:09:12Z</time>
      </trkpt>
      <trkpt lat="59.220957671847" lon="17.912211075977">
        <ele>35</ele>
        <time>2017-07-08T09:09:13Z</time>
      </trkpt>
      <trkpt lat="59.220989355429" lon="17.912295146434">
        <ele>35</ele>
        <time>2017-07-08T09:09:15Z</time>
      </trkpt>
      <trkpt lat="59.221058254647" lon="17.912491115256">
        <ele>35</ele>
        <time>2017-07-08T09:09:20Z</time>
      </trkpt>
      <trkpt lat="59.221170236831" lon="17.912757408219">
        <ele>35</ele>
        <time>2017-07-08T09:09:28Z</time>
      </trkpt>
      <trkpt lat="59.221236789117" lon="17.912923705115">
        <ele>35</ele>
        <time>2017-07-08T09:09:33Z</time>
      </trkpt>
      <trkpt lat="59.221240393334" lon="17.912971733402">
        <ele>35</ele>
        <time>2017-07-08T09:09:34Z</time>
      </trkpt>
      <trkpt lat="59.221277022237" lon="17.913049433615">
        <ele>35</ele>
        <time>2017-07-08T09:09:36Z</time>
      </trkpt>
      <trkpt lat="59.22132622399" lon="17.913180275074">
        <ele>35</ele>
        <time>2017-07-08T09:09:39Z</time>
      </trkpt>
      <trkpt lat="59.221347681654" lon="17.913228303361">
        <ele>35.4</ele>
        <time>2017-07-08T09:09:40Z</time>
      </trkpt>
      <trkpt lat="59.221367211481" lon="17.913281612245">
        <ele>35.8</ele>
        <time>2017-07-08T09:09:41Z</time>
      </trkpt>
      <trkpt lat="59.221391267534" lon="17.913323186469">
        <ele>36.2</ele>
        <time>2017-07-08T09:09:42Z</time>
      </trkpt>
      <trkpt lat="59.221416580872" lon="17.913357636078">
        <ele>36.6</ele>
        <time>2017-07-08T09:09:43Z</time>
      </trkpt>
      <trkpt lat="59.221440553106" lon="17.913392923877">
        <ele>37</ele>
        <time>2017-07-08T09:09:44Z</time>
      </trkpt>
      <trkpt lat="59.221506602478" lon="17.913454111747">
        <ele>37</ele>
        <time>2017-07-08T09:09:47Z</time>
      </trkpt>
      <trkpt lat="59.221552786747" lon="17.913482442569">
        <ele>37</ele>
        <time>2017-07-08T09:09:49Z</time>
      </trkpt>
      <trkpt lat="59.221684634034" lon="17.913507923545">
        <ele>37</ele>
        <time>2017-07-08T09:09:55Z</time>
      </trkpt>
      <trkpt lat="59.221776080563" lon="17.913397031008">
        <ele>37</ele>
        <time>2017-07-08T09:10:01Z</time>
      </trkpt>
      <trkpt lat="59.221818325339" lon="17.913340369364">
        <ele>37</ele>
        <time>2017-07-08T09:10:04Z</time>
      </trkpt>
      <trkpt lat="59.221849338369" lon="17.913276331648">
        <ele>37</ele>
        <time>2017-07-08T09:10:07Z</time>
      </trkpt>
      <trkpt lat="59.221858223183" lon="17.913266441006">
        <ele>37.4</ele>
        <time>2017-07-08T09:10:08Z</time>
      </trkpt>
      <trkpt lat="59.221866269807" lon="17.913252107957">
        <ele>37.8</ele>
        <time>2017-07-08T09:10:09Z</time>
      </trkpt>
      <trkpt lat="59.221875908992" lon="17.913235763252">
        <ele>38.2</ele>
        <time>2017-07-08T09:10:10Z</time>
      </trkpt>
      <trkpt lat="59.221885464358" lon="17.913216568701">
        <ele>38.6</ele>
        <time>2017-07-08T09:10:11Z</time>
      </trkpt>
      <trkpt lat="59.221899629769" lon="17.913197457969">
        <ele>39</ele>
        <time>2017-07-08T09:10:12Z</time>
      </trkpt>
      <trkpt lat="59.221914130456" lon="17.91317893397">
        <ele>39</ele>
        <time>2017-07-08T09:10:13Z</time>
      </trkpt>
      <trkpt lat="59.222033069617" lon="17.913038034231">
        <ele>39</ele>
        <time>2017-07-08T09:10:21Z</time>
      </trkpt>
      <trkpt lat="59.222077912782" lon="17.912975421438">
        <ele>39.6</ele>
        <time>2017-07-08T09:10:24Z</time>
      </trkpt>
      <trkpt lat="59.222090150356" lon="17.912955053421">
        <ele>40</ele>
        <time>2017-07-08T09:10:25Z</time>
      </trkpt>
      <trkpt lat="59.222099957179" lon="17.912936529422">
        <ele>40.4</ele>
        <time>2017-07-08T09:10:26Z</time>
      </trkpt>
      <trkpt lat="59.222110099278" lon="17.912920100898">
        <ele>40.8</ele>
        <time>2017-07-08T09:10:27Z</time>
      </trkpt>
      <trkpt lat="59.222120409015" lon="17.912908366238">
        <ele>41.2</ele>
        <time>2017-07-08T09:10:28Z</time>
      </trkpt>
      <trkpt lat="59.222148404561" lon="17.912813902225">
        <ele>41.2</ele>
        <time>2017-07-08T09:10:32Z</time>
      </trkpt>
      <trkpt lat="59.222164581628" lon="17.91259974468">
        <ele>41.2</ele>
        <time>2017-07-08T09:10:38Z</time>
      </trkpt>
      <trkpt lat="59.222150919131" lon="17.912395561596">
        <ele>41.2</ele>
        <time>2017-07-08T09:10:43Z</time>
      </trkpt>
      <trkpt lat="59.222114290228" lon="17.912141003293">
        <ele>41.2</ele>
        <time>2017-07-08T09:10:49Z</time>
      </trkpt>
      <trkpt lat="59.222062741543" lon="17.911843613481">
        <ele>41.2</ele>
        <time>2017-07-08T09:10:56Z</time>
      </trkpt>
      <trkpt lat="59.222013791247" lon="17.911571872283">
        <ele>41.2</ele>
        <time>2017-07-08T09:11:01Z</time>
      </trkpt>
      <trkpt lat="59.221933408826" lon="17.911142635184">
        <ele>41.2</ele>
        <time>2017-07-08T09:11:08Z</time>
      </trkpt>
      <trkpt lat="59.221848667817" lon="17.91068783329">
        <ele>41.2</ele>
        <time>2017-07-08T09:11:16Z</time>
      </trkpt>
      <trkpt lat="59.22178219935" lon="17.910294638361">
        <ele>41.2</ele>
        <time>2017-07-08T09:11:23Z</time>
      </trkpt>
      <trkpt lat="59.221728219914" lon="17.909958272714">
        <ele>41.2</ele>
        <time>2017-07-08T09:11:29Z</time>
      </trkpt>
      <trkpt lat="59.221683544387" lon="17.90953951299">
        <ele>41.2</ele>
        <time>2017-07-08T09:11:36Z</time>
      </trkpt>
      <trkpt lat="59.221645155285" lon="17.909236423486">
        <ele>41.2</ele>
        <time>2017-07-08T09:11:41Z</time>
      </trkpt>
      <trkpt lat="59.221586817261" lon="17.908893855233">
        <ele>41.2</ele>
        <time>2017-07-08T09:11:47Z</time>
      </trkpt>
      <trkpt lat="59.221567790348" lon="17.908821854712">
        <ele>41.2</ele>
        <time>2017-07-08T09:11:49Z</time>
      </trkpt>
      <trkpt lat="59.221532921644" lon="17.908845072575">
        <ele>41.2</ele>
        <time>2017-07-08T09:11:51Z</time>
      </trkpt>
      <trkpt lat="59.221485983004" lon="17.908898213821">
        <ele>41.2</ele>
        <time>2017-07-08T09:11:53Z</time>
      </trkpt>
      <trkpt lat="59.221404678574" lon="17.90905168641">
        <ele>41.2</ele>
        <time>2017-07-08T09:11:57Z</time>
      </trkpt>
      <trkpt lat="59.221390345525" lon="17.909101223439">
        <ele>40.8</ele>
        <time>2017-07-08T09:11:58Z</time>
      </trkpt>
      <trkpt lat="59.221381460711" lon="17.909159477644">
        <ele>40.4</ele>
        <time>2017-07-08T09:11:59Z</time>
      </trkpt>
      <trkpt lat="59.221375509562" lon="17.909221503704">
        <ele>40</ele>
        <time>2017-07-08T09:12:00Z</time>
      </trkpt>
      <trkpt lat="59.221371234793" lon="17.909288726542">
        <ele>39.6</ele>
        <time>2017-07-08T09:12:01Z</time>
      </trkpt>
      <trkpt lat="59.221370731879" lon="17.909352093706">
        <ele>39.2</ele>
        <time>2017-07-08T09:12:02Z</time>
      </trkpt>
      <trkpt lat="59.221378443227" lon="17.909677730521">
        <ele>39.2</ele>
        <time>2017-07-08T09:12:08Z</time>
      </trkpt>
      <trkpt lat="59.221347597835" lon="17.909863305787">
        <ele>39.2</ele>
        <time>2017-07-08T09:12:12Z</time>
      </trkpt>
      <trkpt lat="59.221327565094" lon="17.909890463143">
        <ele>39.2</ele>
        <time>2017-07-08T09:12:13Z</time>
      </trkpt>
      <trkpt lat="59.221272160735" lon="17.910012419788">
        <ele>38.8</ele>
        <time>2017-07-08T09:12:16Z</time>
      </trkpt>
      <trkpt lat="59.221273501839" lon="17.91008517468">
        <ele>38.4</ele>
        <time>2017-07-08T09:12:17Z</time>
      </trkpt>
      <trkpt lat="59.221282135196" lon="17.910150637319">
        <ele>38</ele>
        <time>2017-07-08T09:12:18Z</time>
      </trkpt>
      <trkpt lat="59.221294875684" lon="17.910193217371">
        <ele>37</ele>
        <time>2017-07-08T09:12:19Z</time>
      </trkpt>
      <trkpt lat="59.221298731358" lon="17.910237054708">
        <ele>37</ele>
        <time>2017-07-08T09:12:20Z</time>
      </trkpt>
      <trkpt lat="59.221309627828" lon="17.910332692187">
        <ele>37</ele>
        <time>2017-07-08T09:12:24Z</time>
      </trkpt>
      <trkpt lat="59.22131365114" lon="17.910322550088">
        <ele>37</ele>
        <time>2017-07-08T09:26:07Z</time>
      </trkpt>
      <trkpt lat="59.221311304208" lon="17.910326489581">
        <ele>37</ele>
        <time>2017-07-08T09:26:08Z</time>
      </trkpt>
      <trkpt lat="59.221303173765" lon="17.910331351083">
        <ele>37</ele>
        <time>2017-07-08T09:26:12Z</time>
      </trkpt>
      <trkpt lat="59.221214996177" lon="17.910476357953">
        <ele>37</ele>
        <time>2017-07-08T09:26:16Z</time>
      </trkpt>
      <trkpt lat="59.221127321503" lon="17.910541736773">
        <ele>37</ele>
        <time>2017-07-08T09:26:19Z</time>
      </trkpt>
      <trkpt lat="59.221097733396" lon="17.910510388467">
        <ele>37</ele>
        <time>2017-07-08T09:26:20Z</time>
      </trkpt>
      <trkpt lat="59.221072922972" lon="17.910325483753">
        <ele>37</ele>
        <time>2017-07-08T09:26:23Z</time>
      </trkpt>
      <trkpt lat="59.221041071752" lon="17.910218782166">
        <ele>37</ele>
        <time>2017-07-08T09:26:25Z</time>
      </trkpt>
      <trkpt lat="59.22097586057" lon="17.910005043716">
        <ele>37</ele>
        <time>2017-07-08T09:26:29Z</time>
      </trkpt>
      <trkpt lat="59.220909895017" lon="17.909715616709">
        <ele>37</ele>
        <time>2017-07-08T09:26:34Z</time>
      </trkpt>
      <trkpt lat="59.220870667725" lon="17.909434236326">
        <ele>37</ele>
        <time>2017-07-08T09:26:38Z</time>
      </trkpt>
      <trkpt lat="59.220850634984" lon="17.909351590792">
        <ele>37</ele>
        <time>2017-07-08T09:26:39Z</time>
      </trkpt>
      <trkpt lat="59.220789363295" lon="17.909059481577">
        <ele>37</ele>
        <time>2017-07-08T09:26:43Z</time>
      </trkpt>
      <trkpt lat="59.220694983101" lon="17.908676931661">
        <ele>37</ele>
        <time>2017-07-08T09:26:49Z</time>
      </trkpt>
      <trkpt lat="59.220679644224" lon="17.908652624151">
        <ele>37</ele>
        <time>2017-07-08T09:26:50Z</time>
      </trkpt>
      <trkpt lat="59.220682996984" lon="17.908672908349">
        <ele>37</ele>
        <time>2017-07-08T09:26:53Z</time>
      </trkpt>
      <trkpt lat="59.220650978126" lon="17.908657820929">
        <ele>37</ele>
        <time>2017-07-08T09:29:38Z</time>
      </trkpt>
      <trkpt lat="59.220630945385" lon="17.908619012732">
        <ele>37</ele>
        <time>2017-07-08T09:29:40Z</time>
      </trkpt>
      <trkpt lat="59.220534302078" lon="17.908578611974">
        <ele>37</ele>
        <time>2017-07-08T09:29:46Z</time>
      </trkpt>
      <trkpt lat="59.220485016506" lon="17.908588670254">
        <ele>37</ele>
        <time>2017-07-08T09:29:48Z</time>
      </trkpt>
      <trkpt lat="59.220402119515" lon="17.908529913135">
        <ele>37</ele>
        <time>2017-07-08T09:29:52Z</time>
      </trkpt>
      <trkpt lat="59.220316875592" lon="17.908381637324">
        <ele>37</ele>
        <time>2017-07-08T09:29:56Z</time>
      </trkpt>
      <trkpt lat="59.220237918094" lon="17.908206539433">
        <ele>37</ele>
        <time>2017-07-08T09:30:02Z</time>
      </trkpt>
      <trkpt lat="59.220156781302" lon="17.908028172601">
        <ele>37</ele>
        <time>2017-07-08T09:30:09Z</time>
      </trkpt>
      <trkpt lat="59.220095593432" lon="17.907888530147">
        <ele>37</ele>
        <time>2017-07-08T09:30:15Z</time>
      </trkpt>
      <trkpt lat="59.220047732783" lon="17.907785851872">
        <ele>37</ele>
        <time>2017-07-08T09:30:19Z</time>
      </trkpt>
      <trkpt lat="59.22004044053" lon="17.907761712">
        <ele>37</ele>
        <time>2017-07-08T09:30:20Z</time>
      </trkpt>
      <trkpt lat="59.219945808879" lon="17.907563396246">
        <ele>37</ele>
        <time>2017-07-08T09:30:28Z</time>
      </trkpt>
      <trkpt lat="59.219910856356" lon="17.907415204254">
        <ele>37</ele>
        <time>2017-07-08T09:30:34Z</time>
      </trkpt>
      <trkpt lat="59.219833742876" lon="17.907241363648">
        <ele>37</ele>
        <time>2017-07-08T09:30:41Z</time>
      </trkpt>
      <trkpt lat="59.219800550552" lon="17.907156035906">
        <ele>37</ele>
        <time>2017-07-08T09:30:45Z</time>
      </trkpt>
    </trkseg>
  </trk>
</gpx>